<?xml version="1.0" encoding="UTF-8" standalone="no" ?>
<gpx xmlns="http://www.topografix.com/GPX/1/1" xmlns:xsi="http://www.w3.org/2001/XMLSchema-instance" xsi:schemaLocation="http://www.topografix.com/GPX/1/1 http://www.topografix.com/GPX/1/1/gpx.xsd" version="1.1" creator="VisuGPX - https://www.visugpx.com">
  <metadata>
    <name>Circuit bonsecours</name>
  </metadata>
  <trk>
    <name><![CDATA[Circuit bonsecours_6]]></name>
    <trkseg>
      <trkpt lat="49.42845" lon="1.13968">
        <ele>139.050003</ele>
        <time>2020-12-05T13:50:51Z</time>
      </trkpt>
      <trkpt lat="49.428" lon="1.13891">
        <ele>137.610001</ele>
        <time>2020-12-05T13:51:01Z</time>
      </trkpt>
      <trkpt lat="49.42794" lon="1.13884">
        <ele>137.610001</ele>
        <time>2020-12-05T13:51:02Z</time>
      </trkpt>
      <trkpt lat="49.42788" lon="1.13879">
        <ele>137.610001</ele>
        <time>2020-12-05T13:51:03Z</time>
      </trkpt>
      <trkpt lat="49.42782" lon="1.13874">
        <ele>137.610001</ele>
        <time>2020-12-05T13:51:04Z</time>
      </trkpt>
      <trkpt lat="49.42775" lon="1.1387">
        <ele>137.610001</ele>
        <time>2020-12-05T13:51:05Z</time>
      </trkpt>
      <trkpt lat="49.42769" lon="1.13864">
        <ele>137.610001</ele>
        <time>2020-12-05T13:51:06Z</time>
      </trkpt>
      <trkpt lat="49.42763" lon="1.13859">
        <ele>137.610001</ele>
        <time>2020-12-05T13:51:07Z</time>
      </trkpt>
      <trkpt lat="49.42756" lon="1.13855">
        <ele>138.570007</ele>
        <time>2020-12-05T13:51:08Z</time>
      </trkpt>
      <trkpt lat="49.42707" lon="1.13819">
        <ele>141.929993</ele>
        <time>2020-12-05T13:51:16Z</time>
      </trkpt>
      <trkpt lat="49.42663" lon="1.13784">
        <ele>143.369995</ele>
        <time>2020-12-05T13:51:24Z</time>
      </trkpt>
      <trkpt lat="49.42655" lon="1.13777">
        <ele>143.369995</ele>
        <time>2020-12-05T13:51:26Z</time>
      </trkpt>
      <trkpt lat="49.4265" lon="1.13777">
        <ele>143.369995</ele>
        <time>2020-12-05T13:51:27Z</time>
      </trkpt>
      <trkpt lat="49.42643" lon="1.13781">
        <ele>144.339996</ele>
        <time>2020-12-05T13:51:29Z</time>
      </trkpt>
      <trkpt lat="49.42635" lon="1.13788">
        <ele>144.820007</ele>
        <time>2020-12-05T13:51:30Z</time>
      </trkpt>
      <trkpt lat="49.42629" lon="1.13793">
        <ele>144.820007</ele>
        <time>2020-12-05T13:51:31Z</time>
      </trkpt>
      <trkpt lat="49.42589" lon="1.13818">
        <ele>140.970001</ele>
        <time>2020-12-05T13:51:37Z</time>
      </trkpt>
      <trkpt lat="49.42563" lon="1.13839">
        <ele>143.369995</ele>
        <time>2020-12-05T13:51:41Z</time>
      </trkpt>
      <trkpt lat="49.42559" lon="1.13848">
        <ele>143.369995</ele>
        <time>2020-12-05T13:51:42Z</time>
      </trkpt>
      <trkpt lat="49.42558" lon="1.13858">
        <ele>141.929993</ele>
        <time>2020-12-05T13:51:43Z</time>
      </trkpt>
      <trkpt lat="49.42559" lon="1.1387">
        <ele>141.929993</ele>
        <time>2020-12-05T13:51:44Z</time>
      </trkpt>
      <trkpt lat="49.4256" lon="1.13878">
        <ele>141.929993</ele>
        <time>2020-12-05T13:51:45Z</time>
      </trkpt>
      <trkpt lat="49.42566" lon="1.13934">
        <ele>141.449997</ele>
        <time>2020-12-05T13:51:50Z</time>
      </trkpt>
      <trkpt lat="49.42569" lon="1.13953">
        <ele>141.449997</ele>
        <time>2020-12-05T13:51:52Z</time>
      </trkpt>
      <trkpt lat="49.42573" lon="1.13964">
        <ele>142.889999</ele>
        <time>2020-12-05T13:51:53Z</time>
      </trkpt>
      <trkpt lat="49.42576" lon="1.13973">
        <ele>143.369995</ele>
        <time>2020-12-05T13:51:54Z</time>
      </trkpt>
      <trkpt lat="49.42581" lon="1.13981">
        <ele>143.369995</ele>
        <time>2020-12-05T13:51:55Z</time>
      </trkpt>
      <trkpt lat="49.42587" lon="1.13986">
        <ele>143.369995</ele>
        <time>2020-12-05T13:51:56Z</time>
      </trkpt>
      <trkpt lat="49.42593" lon="1.13988">
        <ele>143.369995</ele>
        <time>2020-12-05T13:51:57Z</time>
      </trkpt>
      <trkpt lat="49.42599" lon="1.13989">
        <ele>142.410004</ele>
        <time>2020-12-05T13:51:58Z</time>
      </trkpt>
      <trkpt lat="49.42603" lon="1.13993">
        <ele>141.929993</ele>
        <time>2020-12-05T13:51:59Z</time>
      </trkpt>
      <trkpt lat="49.42606" lon="1.14">
        <ele>140.970001</ele>
        <time>2020-12-05T13:52:00Z</time>
      </trkpt>
      <trkpt lat="49.42607" lon="1.14008">
        <ele>140.970001</ele>
        <time>2020-12-05T13:52:01Z</time>
      </trkpt>
      <trkpt lat="49.42608" lon="1.14017">
        <ele>140.490005</ele>
        <time>2020-12-05T13:52:02Z</time>
      </trkpt>
      <trkpt lat="49.4261" lon="1.14026">
        <ele>140.490005</ele>
        <time>2020-12-05T13:52:03Z</time>
      </trkpt>
      <trkpt lat="49.42612" lon="1.14036">
        <ele>141.929993</ele>
        <time>2020-12-05T13:52:04Z</time>
      </trkpt>
      <trkpt lat="49.42613" lon="1.14045">
        <ele>141.929993</ele>
        <time>2020-12-05T13:52:05Z</time>
      </trkpt>
      <trkpt lat="49.42622" lon="1.14099">
        <ele>140.490005</ele>
        <time>2020-12-05T13:52:11Z</time>
      </trkpt>
      <trkpt lat="49.42625" lon="1.14119">
        <ele>140.490005</ele>
        <time>2020-12-05T13:52:13Z</time>
      </trkpt>
      <trkpt lat="49.42648" lon="1.14255">
        <ele>139.050003</ele>
        <time>2020-12-05T13:52:26Z</time>
      </trkpt>
      <trkpt lat="49.42676" lon="1.14404">
        <ele>140.970001</ele>
        <time>2020-12-05T13:52:41Z</time>
      </trkpt>
      <trkpt lat="49.42686" lon="1.14449">
        <ele>140.009995</ele>
        <time>2020-12-05T13:52:47Z</time>
      </trkpt>
      <trkpt lat="49.42689" lon="1.1445">
        <ele>139.529999</ele>
        <time>2020-12-05T13:52:48Z</time>
      </trkpt>
      <trkpt lat="49.42692" lon="1.14446">
        <ele>138.089996</ele>
        <time>2020-12-05T13:52:49Z</time>
      </trkpt>
      <trkpt lat="49.42695" lon="1.14442">
        <ele>138.089996</ele>
        <time>2020-12-05T13:52:50Z</time>
      </trkpt>
      <trkpt lat="49.42699" lon="1.14442">
        <ele>137.610001</ele>
        <time>2020-12-05T13:52:52Z</time>
      </trkpt>
      <trkpt lat="49.42706" lon="1.14442">
        <ele>137.130005</ele>
        <time>2020-12-05T13:52:56Z</time>
      </trkpt>
      <trkpt lat="49.42707" lon="1.14448">
        <ele>137.130005</ele>
        <time>2020-12-05T13:52:57Z</time>
      </trkpt>
      <trkpt lat="49.42708" lon="1.14455">
        <ele>137.130005</ele>
        <time>2020-12-05T13:52:58Z</time>
      </trkpt>
      <trkpt lat="49.4271" lon="1.14463">
        <ele>137.130005</ele>
        <time>2020-12-05T13:52:59Z</time>
      </trkpt>
      <trkpt lat="49.42723" lon="1.14507">
        <ele>136.160004</ele>
        <time>2020-12-05T13:53:04Z</time>
      </trkpt>
      <trkpt lat="49.42726" lon="1.14516">
        <ele>136.160004</ele>
        <time>2020-12-05T13:53:05Z</time>
      </trkpt>
      <trkpt lat="49.42728" lon="1.14525">
        <ele>136.160004</ele>
        <time>2020-12-05T13:53:06Z</time>
      </trkpt>
      <trkpt lat="49.42732" lon="1.14542">
        <ele>136.160004</ele>
        <time>2020-12-05T13:53:08Z</time>
      </trkpt>
      <trkpt lat="49.42734" lon="1.14551">
        <ele>136.160004</ele>
        <time>2020-12-05T13:53:09Z</time>
      </trkpt>
      <trkpt lat="49.42736" lon="1.14582">
        <ele>136.160004</ele>
        <time>2020-12-05T13:53:12Z</time>
      </trkpt>
      <trkpt lat="49.42736" lon="1.14593">
        <ele>136.160004</ele>
        <time>2020-12-05T13:53:13Z</time>
      </trkpt>
      <trkpt lat="49.42735" lon="1.14604">
        <ele>137.610001</ele>
        <time>2020-12-05T13:53:14Z</time>
      </trkpt>
      <trkpt lat="49.42736" lon="1.14615">
        <ele>138.089996</ele>
        <time>2020-12-05T13:53:15Z</time>
      </trkpt>
      <trkpt lat="49.42737" lon="1.14626">
        <ele>139.050003</ele>
        <time>2020-12-05T13:53:16Z</time>
      </trkpt>
      <trkpt lat="49.42739" lon="1.14638">
        <ele>139.050003</ele>
        <time>2020-12-05T13:53:17Z</time>
      </trkpt>
      <trkpt lat="49.42749" lon="1.14725">
        <ele>135.679993</ele>
        <time>2020-12-05T13:53:25Z</time>
      </trkpt>
      <trkpt lat="49.42751" lon="1.14736">
        <ele>135.679993</ele>
        <time>2020-12-05T13:53:26Z</time>
      </trkpt>
      <trkpt lat="49.42753" lon="1.14747">
        <ele>135.679993</ele>
        <time>2020-12-05T13:53:27Z</time>
      </trkpt>
      <trkpt lat="49.42757" lon="1.14756">
        <ele>135.679993</ele>
        <time>2020-12-05T13:53:28Z</time>
      </trkpt>
      <trkpt lat="49.42763" lon="1.14762">
        <ele>135.679993</ele>
        <time>2020-12-05T13:53:29Z</time>
      </trkpt>
      <trkpt lat="49.42769" lon="1.14768">
        <ele>134.720001</ele>
        <time>2020-12-05T13:53:30Z</time>
      </trkpt>
      <trkpt lat="49.42774" lon="1.14777">
        <ele>133.759995</ele>
        <time>2020-12-05T13:53:31Z</time>
      </trkpt>
      <trkpt lat="49.42779" lon="1.14786">
        <ele>132.320007</ele>
        <time>2020-12-05T13:53:32Z</time>
      </trkpt>
      <trkpt lat="49.42783" lon="1.14795">
        <ele>131.839996</ele>
        <time>2020-12-05T13:53:33Z</time>
      </trkpt>
      <trkpt lat="49.42786" lon="1.14807">
        <ele>130.880005</ele>
        <time>2020-12-05T13:53:34Z</time>
      </trkpt>
      <trkpt lat="49.42786" lon="1.1482">
        <ele>129.919998</ele>
        <time>2020-12-05T13:53:35Z</time>
      </trkpt>
      <trkpt lat="49.42784" lon="1.14832">
        <ele>129.919998</ele>
        <time>2020-12-05T13:53:36Z</time>
      </trkpt>
      <trkpt lat="49.4278" lon="1.14841">
        <ele>129.919998</ele>
        <time>2020-12-05T13:53:37Z</time>
      </trkpt>
      <trkpt lat="49.42776" lon="1.14849">
        <ele>132.320007</ele>
        <time>2020-12-05T13:53:38Z</time>
      </trkpt>
      <trkpt lat="49.42773" lon="1.14856">
        <ele>131.839996</ele>
        <time>2020-12-05T13:53:39Z</time>
      </trkpt>
      <trkpt lat="49.42772" lon="1.14863">
        <ele>132.320007</ele>
        <time>2020-12-05T13:53:40Z</time>
      </trkpt>
      <trkpt lat="49.42768" lon="1.14889">
        <ele>133.279999</ele>
        <time>2020-12-05T13:53:43Z</time>
      </trkpt>
      <trkpt lat="49.42767" lon="1.14897">
        <ele>133.279999</ele>
        <time>2020-12-05T13:53:44Z</time>
      </trkpt>
      <trkpt lat="49.42763" lon="1.14909">
        <ele>133.279999</ele>
        <time>2020-12-05T13:53:46Z</time>
      </trkpt>
      <trkpt lat="49.42738" lon="1.14955">
        <ele>135.199997</ele>
        <time>2020-12-05T13:53:53Z</time>
      </trkpt>
      <trkpt lat="49.42732" lon="1.14971">
        <ele>135.679993</ele>
        <time>2020-12-05T13:53:55Z</time>
      </trkpt>
      <trkpt lat="49.42723" lon="1.14996">
        <ele>136.160004</ele>
        <time>2020-12-05T13:53:58Z</time>
      </trkpt>
      <trkpt lat="49.42702" lon="1.15042">
        <ele>136.160004</ele>
        <time>2020-12-05T13:54:04Z</time>
      </trkpt>
      <trkpt lat="49.4269" lon="1.15096">
        <ele>136.160004</ele>
        <time>2020-12-05T13:54:10Z</time>
      </trkpt>
      <trkpt lat="49.42694" lon="1.15136">
        <ele>135.199997</ele>
        <time>2020-12-05T13:54:17Z</time>
      </trkpt>
      <trkpt lat="49.42723" lon="1.15175">
        <ele>132.320007</ele>
        <time>2020-12-05T13:54:23Z</time>
      </trkpt>
      <trkpt lat="49.42739" lon="1.15201">
        <ele>127.029999</ele>
        <time>2020-12-05T13:54:27Z</time>
      </trkpt>
      <trkpt lat="49.42739" lon="1.15207">
        <ele>127.029999</ele>
        <time>2020-12-05T13:54:28Z</time>
      </trkpt>
      <trkpt lat="49.42738" lon="1.15213">
        <ele>127.029999</ele>
        <time>2020-12-05T13:54:29Z</time>
      </trkpt>
      <trkpt lat="49.42737" lon="1.1522">
        <ele>127.029999</ele>
        <time>2020-12-05T13:54:30Z</time>
      </trkpt>
      <trkpt lat="49.42735" lon="1.15229">
        <ele>127.029999</ele>
        <time>2020-12-05T13:54:31Z</time>
      </trkpt>
      <trkpt lat="49.42735" lon="1.15238">
        <ele>126.550003</ele>
        <time>2020-12-05T13:54:32Z</time>
      </trkpt>
      <trkpt lat="49.42734" lon="1.15247">
        <ele>126.550003</ele>
        <time>2020-12-05T13:54:33Z</time>
      </trkpt>
      <trkpt lat="49.42735" lon="1.15257">
        <ele>126.07</ele>
        <time>2020-12-05T13:54:34Z</time>
      </trkpt>
      <trkpt lat="49.42736" lon="1.15268">
        <ele>126.07</ele>
        <time>2020-12-05T13:54:35Z</time>
      </trkpt>
      <trkpt lat="49.42741" lon="1.15293">
        <ele>123.669998</ele>
        <time>2020-12-05T13:54:37Z</time>
      </trkpt>
      <trkpt lat="49.42743" lon="1.15305">
        <ele>123.669998</ele>
        <time>2020-12-05T13:54:38Z</time>
      </trkpt>
      <trkpt lat="49.42749" lon="1.1534">
        <ele>121.739998</ele>
        <time>2020-12-05T13:54:41Z</time>
      </trkpt>
      <trkpt lat="49.4275" lon="1.15352">
        <ele>121.260002</ele>
        <time>2020-12-05T13:54:42Z</time>
      </trkpt>
      <trkpt lat="49.4275" lon="1.15365">
        <ele>120.779999</ele>
        <time>2020-12-05T13:54:43Z</time>
      </trkpt>
      <trkpt lat="49.42749" lon="1.15377">
        <ele>120.779999</ele>
        <time>2020-12-05T13:54:44Z</time>
      </trkpt>
      <trkpt lat="49.42748" lon="1.15388">
        <ele>119.82</ele>
        <time>2020-12-05T13:54:45Z</time>
      </trkpt>
      <trkpt lat="49.42745" lon="1.15412">
        <ele>118.860001</ele>
        <time>2020-12-05T13:54:47Z</time>
      </trkpt>
      <trkpt lat="49.42744" lon="1.15423">
        <ele>118.860001</ele>
        <time>2020-12-05T13:54:48Z</time>
      </trkpt>
      <trkpt lat="49.4274" lon="1.1544">
        <ele>117.900002</ele>
        <time>2020-12-05T13:54:50Z</time>
      </trkpt>
      <trkpt lat="49.42722" lon="1.1546">
        <ele>120.300003</ele>
        <time>2020-12-05T13:54:54Z</time>
      </trkpt>
      <trkpt lat="49.42716" lon="1.15507">
        <ele>119.339996</ele>
        <time>2020-12-05T13:55:01Z</time>
      </trkpt>
      <trkpt lat="49.42719" lon="1.15509">
        <ele>119.339996</ele>
        <time>2020-12-05T13:55:02Z</time>
      </trkpt>
      <trkpt lat="49.42733" lon="1.15512">
        <ele>115.5</ele>
        <time>2020-12-05T13:55:06Z</time>
      </trkpt>
      <trkpt lat="49.42734" lon="1.1551">
        <ele>115.5</ele>
        <time>2020-12-05T13:55:07Z</time>
      </trkpt>
      <trkpt lat="49.42738" lon="1.15486">
        <ele>112.129997</ele>
        <time>2020-12-05T13:55:11Z</time>
      </trkpt>
      <trkpt lat="49.42749" lon="1.15469">
        <ele>110.209999</ele>
        <time>2020-12-05T13:55:14Z</time>
      </trkpt>
      <trkpt lat="49.42751" lon="1.15466">
        <ele>112.610001</ele>
        <time>2020-12-05T13:55:15Z</time>
      </trkpt>
      <trkpt lat="49.42767" lon="1.15446">
        <ele>109.730003</ele>
        <time>2020-12-05T13:55:19Z</time>
      </trkpt>
      <trkpt lat="49.42774" lon="1.15435">
        <ele>107.809998</ele>
        <time>2020-12-05T13:55:21Z</time>
      </trkpt>
      <trkpt lat="49.42776" lon="1.1543">
        <ele>107.32</ele>
        <time>2020-12-05T13:55:22Z</time>
      </trkpt>
      <trkpt lat="49.42777" lon="1.15425">
        <ele>106.839996</ele>
        <time>2020-12-05T13:55:23Z</time>
      </trkpt>
      <trkpt lat="49.42778" lon="1.1542">
        <ele>106.839996</ele>
        <time>2020-12-05T13:55:24Z</time>
      </trkpt>
      <trkpt lat="49.42778" lon="1.15416">
        <ele>108.769997</ele>
        <time>2020-12-05T13:55:25Z</time>
      </trkpt>
      <trkpt lat="49.42784" lon="1.15399">
        <ele>107.809998</ele>
        <time>2020-12-05T13:55:31Z</time>
      </trkpt>
      <trkpt lat="49.42786" lon="1.15396">
        <ele>106.839996</ele>
        <time>2020-12-05T13:55:32Z</time>
      </trkpt>
      <trkpt lat="49.42788" lon="1.15392">
        <ele>106.360001</ele>
        <time>2020-12-05T13:55:33Z</time>
      </trkpt>
      <trkpt lat="49.42789" lon="1.15387">
        <ele>106.360001</ele>
        <time>2020-12-05T13:55:34Z</time>
      </trkpt>
      <trkpt lat="49.4279" lon="1.15381">
        <ele>106.360001</ele>
        <time>2020-12-05T13:55:35Z</time>
      </trkpt>
      <trkpt lat="49.42791" lon="1.15375">
        <ele>106.360001</ele>
        <time>2020-12-05T13:55:36Z</time>
      </trkpt>
      <trkpt lat="49.42792" lon="1.1537">
        <ele>106.360001</ele>
        <time>2020-12-05T13:55:37Z</time>
      </trkpt>
      <trkpt lat="49.42793" lon="1.15366">
        <ele>106.360001</ele>
        <time>2020-12-05T13:55:38Z</time>
      </trkpt>
      <trkpt lat="49.42796" lon="1.15355">
        <ele>104.919998</ele>
        <time>2020-12-05T13:55:41Z</time>
      </trkpt>
      <trkpt lat="49.42799" lon="1.15351">
        <ele>102.040001</ele>
        <time>2020-12-05T13:55:44Z</time>
      </trkpt>
      <trkpt lat="49.428" lon="1.1535">
        <ele>101.080002</ele>
        <time>2020-12-05T13:55:45Z</time>
      </trkpt>
      <trkpt lat="49.42802" lon="1.15348">
        <ele>101.080002</ele>
        <time>2020-12-05T13:55:46Z</time>
      </trkpt>
      <trkpt lat="49.42803" lon="1.15345">
        <ele>100.110001</ele>
        <time>2020-12-05T13:55:47Z</time>
      </trkpt>
      <trkpt lat="49.42805" lon="1.15343">
        <ele>100.110001</ele>
        <time>2020-12-05T13:55:48Z</time>
      </trkpt>
      <trkpt lat="49.42805" lon="1.15341">
        <ele>99.150002</ele>
        <time>2020-12-05T13:55:49Z</time>
      </trkpt>
      <trkpt lat="49.42806" lon="1.15339">
        <ele>98.190002</ele>
        <time>2020-12-05T13:55:50Z</time>
      </trkpt>
      <trkpt lat="49.42808" lon="1.15336">
        <ele>98.190002</ele>
        <time>2020-12-05T13:55:51Z</time>
      </trkpt>
      <trkpt lat="49.42816" lon="1.15333">
        <ele>97.709999</ele>
        <time>2020-12-05T13:55:53Z</time>
      </trkpt>
      <trkpt lat="49.4282" lon="1.15328">
        <ele>96.75</ele>
        <time>2020-12-05T13:55:54Z</time>
      </trkpt>
      <trkpt lat="49.42822" lon="1.15322">
        <ele>96.75</ele>
        <time>2020-12-05T13:55:55Z</time>
      </trkpt>
      <trkpt lat="49.42823" lon="1.15316">
        <ele>96.269997</ele>
        <time>2020-12-05T13:55:56Z</time>
      </trkpt>
      <trkpt lat="49.42824" lon="1.1531">
        <ele>96.269997</ele>
        <time>2020-12-05T13:55:57Z</time>
      </trkpt>
      <trkpt lat="49.42826" lon="1.15305">
        <ele>96.269997</ele>
        <time>2020-12-05T13:55:58Z</time>
      </trkpt>
      <trkpt lat="49.42829" lon="1.153">
        <ele>96.269997</ele>
        <time>2020-12-05T13:55:59Z</time>
      </trkpt>
      <trkpt lat="49.42833" lon="1.15297">
        <ele>95.309998</ele>
        <time>2020-12-05T13:56:00Z</time>
      </trkpt>
      <trkpt lat="49.42836" lon="1.15295">
        <ele>95.309998</ele>
        <time>2020-12-05T13:56:01Z</time>
      </trkpt>
      <trkpt lat="49.42839" lon="1.15292">
        <ele>94.830002</ele>
        <time>2020-12-05T13:56:02Z</time>
      </trkpt>
      <trkpt lat="49.42841" lon="1.15287">
        <ele>94.349998</ele>
        <time>2020-12-05T13:56:03Z</time>
      </trkpt>
      <trkpt lat="49.42841" lon="1.15282">
        <ele>94.349998</ele>
        <time>2020-12-05T13:56:04Z</time>
      </trkpt>
      <trkpt lat="49.42841" lon="1.15277">
        <ele>94.349998</ele>
        <time>2020-12-05T13:56:05Z</time>
      </trkpt>
      <trkpt lat="49.42839" lon="1.15262">
        <ele>97.709999</ele>
        <time>2020-12-05T13:56:09Z</time>
      </trkpt>
      <trkpt lat="49.42838" lon="1.15255">
        <ele>98.669998</ele>
        <time>2020-12-05T13:56:11Z</time>
      </trkpt>
      <trkpt lat="49.42838" lon="1.15253">
        <ele>99.629997</ele>
        <time>2020-12-05T13:56:12Z</time>
      </trkpt>
      <trkpt lat="49.42838" lon="1.1525">
        <ele>99.629997</ele>
        <time>2020-12-05T13:56:13Z</time>
      </trkpt>
      <trkpt lat="49.42839" lon="1.15246">
        <ele>100.110001</ele>
        <time>2020-12-05T13:56:14Z</time>
      </trkpt>
      <trkpt lat="49.42839" lon="1.15241">
        <ele>100.110001</ele>
        <time>2020-12-05T13:56:15Z</time>
      </trkpt>
      <trkpt lat="49.42839" lon="1.15236">
        <ele>100.599998</ele>
        <time>2020-12-05T13:56:16Z</time>
      </trkpt>
      <trkpt lat="49.42839" lon="1.15231">
        <ele>100.599998</ele>
        <time>2020-12-05T13:56:17Z</time>
      </trkpt>
      <trkpt lat="49.4284" lon="1.15226">
        <ele>100.599998</ele>
        <time>2020-12-05T13:56:18Z</time>
      </trkpt>
      <trkpt lat="49.4284" lon="1.1522">
        <ele>100.599998</ele>
        <time>2020-12-05T13:56:19Z</time>
      </trkpt>
      <trkpt lat="49.42843" lon="1.15206">
        <ele>101.080002</ele>
        <time>2020-12-05T13:56:22Z</time>
      </trkpt>
      <trkpt lat="49.42854" lon="1.15186">
        <ele>99.150002</ele>
        <time>2020-12-05T13:56:27Z</time>
      </trkpt>
      <trkpt lat="49.42867" lon="1.15159">
        <ele>97.709999</ele>
        <time>2020-12-05T13:56:35Z</time>
      </trkpt>
      <trkpt lat="49.42875" lon="1.15139">
        <ele>97.230003</ele>
        <time>2020-12-05T13:56:41Z</time>
      </trkpt>
      <trkpt lat="49.42878" lon="1.15138">
        <ele>96.75</ele>
        <time>2020-12-05T13:56:42Z</time>
      </trkpt>
      <trkpt lat="49.42882" lon="1.15119">
        <ele>95.309998</ele>
        <time>2020-12-05T13:56:50Z</time>
      </trkpt>
      <trkpt lat="49.42882" lon="1.15111">
        <ele>96.75</ele>
        <time>2020-12-05T13:56:52Z</time>
      </trkpt>
      <trkpt lat="49.42882" lon="1.15101">
        <ele>98.190002</ele>
        <time>2020-12-05T13:56:55Z</time>
      </trkpt>
      <trkpt lat="49.42878" lon="1.15081">
        <ele>103</ele>
        <time>2020-12-05T13:57:03Z</time>
      </trkpt>
      <trkpt lat="49.4288" lon="1.15056">
        <ele>106.839996</ele>
        <time>2020-12-05T13:57:11Z</time>
      </trkpt>
      <trkpt lat="49.4288" lon="1.15049">
        <ele>107.32</ele>
        <time>2020-12-05T13:57:13Z</time>
      </trkpt>
      <trkpt lat="49.4288" lon="1.15039">
        <ele>108.290001</ele>
        <time>2020-12-05T13:57:16Z</time>
      </trkpt>
      <trkpt lat="49.42879" lon="1.14996">
        <ele>107.32</ele>
        <time>2020-12-05T13:57:27Z</time>
      </trkpt>
      <trkpt lat="49.42879" lon="1.14991">
        <ele>107.32</ele>
        <time>2020-12-05T13:57:28Z</time>
      </trkpt>
      <trkpt lat="49.42874" lon="1.14929">
        <ele>107.32</ele>
        <time>2020-12-05T13:57:37Z</time>
      </trkpt>
      <trkpt lat="49.42873" lon="1.14925">
        <ele>107.32</ele>
        <time>2020-12-05T13:57:38Z</time>
      </trkpt>
      <trkpt lat="49.42869" lon="1.14913">
        <ele>109.25</ele>
        <time>2020-12-05T13:57:41Z</time>
      </trkpt>
      <trkpt lat="49.42862" lon="1.1489">
        <ele>111.650002</ele>
        <time>2020-12-05T13:57:47Z</time>
      </trkpt>
      <trkpt lat="49.42849" lon="1.14868">
        <ele>115.010002</ele>
        <time>2020-12-05T13:57:55Z</time>
      </trkpt>
      <trkpt lat="49.42838" lon="1.14857">
        <ele>118.860001</ele>
        <time>2020-12-05T13:58:01Z</time>
      </trkpt>
      <trkpt lat="49.42826" lon="1.1485">
        <ele>122.220001</ele>
        <time>2020-12-05T13:58:08Z</time>
      </trkpt>
      <trkpt lat="49.42812" lon="1.14843">
        <ele>126.07</ele>
        <time>2020-12-05T13:58:17Z</time>
      </trkpt>
      <trkpt lat="49.42809" lon="1.14841">
        <ele>127.029999</ele>
        <time>2020-12-05T13:58:19Z</time>
      </trkpt>
      <trkpt lat="49.42807" lon="1.14831">
        <ele>127.029999</ele>
        <time>2020-12-05T13:58:31Z</time>
      </trkpt>
      <trkpt lat="49.42807" lon="1.1483">
        <ele>127.510002</ele>
        <time>2020-12-05T13:58:56Z</time>
      </trkpt>
      <trkpt lat="49.42805" lon="1.1483">
        <ele>127.510002</ele>
        <time>2020-12-05T13:59:00Z</time>
      </trkpt>
      <trkpt lat="49.42807" lon="1.14806">
        <ele>129.919998</ele>
        <time>2020-12-05T13:59:08Z</time>
      </trkpt>
      <trkpt lat="49.42829" lon="1.14803">
        <ele>127.989998</ele>
        <time>2020-12-05T13:59:15Z</time>
      </trkpt>
      <trkpt lat="49.42832" lon="1.148">
        <ele>127.989998</ele>
        <time>2020-12-05T13:59:16Z</time>
      </trkpt>
      <trkpt lat="49.4286" lon="1.14765">
        <ele>127.989998</ele>
        <time>2020-12-05T13:59:23Z</time>
      </trkpt>
      <trkpt lat="49.42873" lon="1.14738">
        <ele>127.989998</ele>
        <time>2020-12-05T13:59:27Z</time>
      </trkpt>
      <trkpt lat="49.42886" lon="1.14717">
        <ele>126.550003</ele>
        <time>2020-12-05T13:59:30Z</time>
      </trkpt>
      <trkpt lat="49.42895" lon="1.147">
        <ele>124.629997</ele>
        <time>2020-12-05T13:59:32Z</time>
      </trkpt>
      <trkpt lat="49.42899" lon="1.14682">
        <ele>124.150002</ele>
        <time>2020-12-05T13:59:34Z</time>
      </trkpt>
      <trkpt lat="49.42896" lon="1.14655">
        <ele>123.190002</ele>
        <time>2020-12-05T13:59:37Z</time>
      </trkpt>
      <trkpt lat="49.42892" lon="1.14639">
        <ele>122.709999</ele>
        <time>2020-12-05T13:59:39Z</time>
      </trkpt>
      <trkpt lat="49.42862" lon="1.14601">
        <ele>121.739998</ele>
        <time>2020-12-05T13:59:46Z</time>
      </trkpt>
      <trkpt lat="49.42849" lon="1.14586">
        <ele>121.739998</ele>
        <time>2020-12-05T13:59:49Z</time>
      </trkpt>
      <trkpt lat="49.42842" lon="1.14576">
        <ele>123.669998</ele>
        <time>2020-12-05T13:59:51Z</time>
      </trkpt>
      <trkpt lat="49.42829" lon="1.14559">
        <ele>125.110001</ele>
        <time>2020-12-05T13:59:55Z</time>
      </trkpt>
      <trkpt lat="49.42814" lon="1.14523">
        <ele>123.190002</ele>
        <time>2020-12-05T14:00:00Z</time>
      </trkpt>
      <trkpt lat="49.4281" lon="1.14514">
        <ele>122.709999</ele>
        <time>2020-12-05T14:00:01Z</time>
      </trkpt>
      <trkpt lat="49.42807" lon="1.14505">
        <ele>122.709999</ele>
        <time>2020-12-05T14:00:02Z</time>
      </trkpt>
      <trkpt lat="49.42803" lon="1.14491">
        <ele>122.220001</ele>
        <time>2020-12-05T14:00:04Z</time>
      </trkpt>
      <trkpt lat="49.42798" lon="1.14477">
        <ele>121.739998</ele>
        <time>2020-12-05T14:00:06Z</time>
      </trkpt>
      <trkpt lat="49.42795" lon="1.14474">
        <ele>120.779999</ele>
        <time>2020-12-05T14:00:07Z</time>
      </trkpt>
      <trkpt lat="49.42793" lon="1.14472">
        <ele>120.779999</ele>
        <time>2020-12-05T14:00:08Z</time>
      </trkpt>
      <trkpt lat="49.42791" lon="1.14468">
        <ele>120.779999</ele>
        <time>2020-12-05T14:00:09Z</time>
      </trkpt>
      <trkpt lat="49.42789" lon="1.14461">
        <ele>120.779999</ele>
        <time>2020-12-05T14:00:10Z</time>
      </trkpt>
      <trkpt lat="49.42786" lon="1.14454">
        <ele>120.300003</ele>
        <time>2020-12-05T14:00:11Z</time>
      </trkpt>
      <trkpt lat="49.42782" lon="1.14448">
        <ele>120.300003</ele>
        <time>2020-12-05T14:00:12Z</time>
      </trkpt>
      <trkpt lat="49.42778" lon="1.14443">
        <ele>119.82</ele>
        <time>2020-12-05T14:00:13Z</time>
      </trkpt>
      <trkpt lat="49.42776" lon="1.14438">
        <ele>119.82</ele>
        <time>2020-12-05T14:00:14Z</time>
      </trkpt>
      <trkpt lat="49.42775" lon="1.14433">
        <ele>119.82</ele>
        <time>2020-12-05T14:00:15Z</time>
      </trkpt>
      <trkpt lat="49.42774" lon="1.14428">
        <ele>120.300003</ele>
        <time>2020-12-05T14:00:16Z</time>
      </trkpt>
      <trkpt lat="49.42772" lon="1.14424">
        <ele>120.300003</ele>
        <time>2020-12-05T14:00:17Z</time>
      </trkpt>
      <trkpt lat="49.42769" lon="1.14421">
        <ele>122.220001</ele>
        <time>2020-12-05T14:00:18Z</time>
      </trkpt>
      <trkpt lat="49.42767" lon="1.14419">
        <ele>123.190002</ele>
        <time>2020-12-05T14:00:19Z</time>
      </trkpt>
      <trkpt lat="49.42766" lon="1.14417">
        <ele>123.669998</ele>
        <time>2020-12-05T14:00:20Z</time>
      </trkpt>
      <trkpt lat="49.42764" lon="1.14413">
        <ele>124.150002</ele>
        <time>2020-12-05T14:00:21Z</time>
      </trkpt>
      <trkpt lat="49.42762" lon="1.14408">
        <ele>124.150002</ele>
        <time>2020-12-05T14:00:22Z</time>
      </trkpt>
      <trkpt lat="49.4276" lon="1.14403">
        <ele>124.150002</ele>
        <time>2020-12-05T14:00:23Z</time>
      </trkpt>
      <trkpt lat="49.42758" lon="1.14399">
        <ele>124.629997</ele>
        <time>2020-12-05T14:00:24Z</time>
      </trkpt>
      <trkpt lat="49.42756" lon="1.14397">
        <ele>124.629997</ele>
        <time>2020-12-05T14:00:25Z</time>
      </trkpt>
      <trkpt lat="49.42754" lon="1.14395">
        <ele>125.110001</ele>
        <time>2020-12-05T14:00:26Z</time>
      </trkpt>
      <trkpt lat="49.42752" lon="1.14393">
        <ele>125.589996</ele>
        <time>2020-12-05T14:00:27Z</time>
      </trkpt>
      <trkpt lat="49.42751" lon="1.14393">
        <ele>126.07</ele>
        <time>2020-12-05T14:00:28Z</time>
      </trkpt>
      <trkpt lat="49.4275" lon="1.14393">
        <ele>126.07</ele>
        <time>2020-12-05T14:00:29Z</time>
      </trkpt>
      <trkpt lat="49.42749" lon="1.14393">
        <ele>127.510002</ele>
        <time>2020-12-05T14:00:30Z</time>
      </trkpt>
      <trkpt lat="49.42746" lon="1.14392">
        <ele>127.989998</ele>
        <time>2020-12-05T14:00:32Z</time>
      </trkpt>
      <trkpt lat="49.42736" lon="1.14396">
        <ele>130.880005</ele>
        <time>2020-12-05T14:00:37Z</time>
      </trkpt>
      <trkpt lat="49.42722" lon="1.14405">
        <ele>134.720001</ele>
        <time>2020-12-05T14:00:44Z</time>
      </trkpt>
      <trkpt lat="49.42709" lon="1.14406">
        <ele>137.130005</ele>
        <time>2020-12-05T14:00:49Z</time>
      </trkpt>
      <trkpt lat="49.42708" lon="1.14402">
        <ele>137.130005</ele>
        <time>2020-12-05T14:00:50Z</time>
      </trkpt>
      <trkpt lat="49.42706" lon="1.14397">
        <ele>137.130005</ele>
        <time>2020-12-05T14:00:51Z</time>
      </trkpt>
      <trkpt lat="49.42704" lon="1.14386">
        <ele>137.130005</ele>
        <time>2020-12-05T14:00:53Z</time>
      </trkpt>
      <trkpt lat="49.42695" lon="1.14339">
        <ele>137.610001</ele>
        <time>2020-12-05T14:01:00Z</time>
      </trkpt>
      <trkpt lat="49.42687" lon="1.14301">
        <ele>137.610001</ele>
        <time>2020-12-05T14:01:05Z</time>
      </trkpt>
      <trkpt lat="49.42682" lon="1.14261">
        <ele>136.160004</ele>
        <time>2020-12-05T14:01:10Z</time>
      </trkpt>
      <trkpt lat="49.4268" lon="1.14242">
        <ele>135.679993</ele>
        <time>2020-12-05T14:01:12Z</time>
      </trkpt>
      <trkpt lat="49.42678" lon="1.14233">
        <ele>135.679993</ele>
        <time>2020-12-05T14:01:13Z</time>
      </trkpt>
      <trkpt lat="49.42675" lon="1.14215">
        <ele>135.679993</ele>
        <time>2020-12-05T14:01:15Z</time>
      </trkpt>
      <trkpt lat="49.42672" lon="1.1421">
        <ele>135.679993</ele>
        <time>2020-12-05T14:01:16Z</time>
      </trkpt>
      <trkpt lat="49.42669" lon="1.14206">
        <ele>135.679993</ele>
        <time>2020-12-05T14:01:17Z</time>
      </trkpt>
      <trkpt lat="49.42666" lon="1.14202">
        <ele>135.679993</ele>
        <time>2020-12-05T14:01:18Z</time>
      </trkpt>
      <trkpt lat="49.42663" lon="1.14196">
        <ele>137.130005</ele>
        <time>2020-12-05T14:01:19Z</time>
      </trkpt>
      <trkpt lat="49.42662" lon="1.14188">
        <ele>137.130005</ele>
        <time>2020-12-05T14:01:20Z</time>
      </trkpt>
      <trkpt lat="49.42663" lon="1.14155">
        <ele>137.130005</ele>
        <time>2020-12-05T14:01:23Z</time>
      </trkpt>
      <trkpt lat="49.42662" lon="1.14144">
        <ele>137.130005</ele>
        <time>2020-12-05T14:01:24Z</time>
      </trkpt>
      <trkpt lat="49.4266" lon="1.14136">
        <ele>137.130005</ele>
        <time>2020-12-05T14:01:25Z</time>
      </trkpt>
      <trkpt lat="49.42658" lon="1.14126">
        <ele>137.130005</ele>
        <time>2020-12-05T14:01:26Z</time>
      </trkpt>
      <trkpt lat="49.42654" lon="1.14108">
        <ele>137.130005</ele>
        <time>2020-12-05T14:01:28Z</time>
      </trkpt>
      <trkpt lat="49.42652" lon="1.14099">
        <ele>137.610001</ele>
        <time>2020-12-05T14:01:29Z</time>
      </trkpt>
      <trkpt lat="49.4265" lon="1.14091">
        <ele>138.570007</ele>
        <time>2020-12-05T14:01:30Z</time>
      </trkpt>
      <trkpt lat="49.42648" lon="1.14082">
        <ele>138.570007</ele>
        <time>2020-12-05T14:01:31Z</time>
      </trkpt>
      <trkpt lat="49.42646" lon="1.14073">
        <ele>138.570007</ele>
        <time>2020-12-05T14:01:32Z</time>
      </trkpt>
      <trkpt lat="49.42642" lon="1.14047">
        <ele>139.050003</ele>
        <time>2020-12-05T14:01:35Z</time>
      </trkpt>
      <trkpt lat="49.42639" lon="1.14039">
        <ele>139.050003</ele>
        <time>2020-12-05T14:01:36Z</time>
      </trkpt>
      <trkpt lat="49.42636" lon="1.14029">
        <ele>139.050003</ele>
        <time>2020-12-05T14:01:37Z</time>
      </trkpt>
      <trkpt lat="49.42633" lon="1.1402">
        <ele>139.050003</ele>
        <time>2020-12-05T14:01:38Z</time>
      </trkpt>
      <trkpt lat="49.42629" lon="1.14011">
        <ele>139.050003</ele>
        <time>2020-12-05T14:01:39Z</time>
      </trkpt>
      <trkpt lat="49.42621" lon="1.13997">
        <ele>139.529999</ele>
        <time>2020-12-05T14:01:41Z</time>
      </trkpt>
      <trkpt lat="49.42617" lon="1.13991">
        <ele>140.490005</ele>
        <time>2020-12-05T14:01:42Z</time>
      </trkpt>
      <trkpt lat="49.42612" lon="1.13987">
        <ele>140.490005</ele>
        <time>2020-12-05T14:01:43Z</time>
      </trkpt>
      <trkpt lat="49.42603" lon="1.13979">
        <ele>141.929993</ele>
        <time>2020-12-05T14:01:45Z</time>
      </trkpt>
      <trkpt lat="49.426" lon="1.13972">
        <ele>141.929993</ele>
        <time>2020-12-05T14:01:46Z</time>
      </trkpt>
      <trkpt lat="49.42599" lon="1.13963">
        <ele>141.929993</ele>
        <time>2020-12-05T14:01:47Z</time>
      </trkpt>
      <trkpt lat="49.42598" lon="1.13956">
        <ele>141.929993</ele>
        <time>2020-12-05T14:01:48Z</time>
      </trkpt>
      <trkpt lat="49.42597" lon="1.13949">
        <ele>142.410004</ele>
        <time>2020-12-05T14:01:49Z</time>
      </trkpt>
      <trkpt lat="49.42586" lon="1.13905">
        <ele>142.889999</ele>
        <time>2020-12-05T14:01:54Z</time>
      </trkpt>
      <trkpt lat="49.42583" lon="1.13897">
        <ele>142.889999</ele>
        <time>2020-12-05T14:01:55Z</time>
      </trkpt>
      <trkpt lat="49.42579" lon="1.13889">
        <ele>142.889999</ele>
        <time>2020-12-05T14:01:56Z</time>
      </trkpt>
      <trkpt lat="49.42572" lon="1.13876">
        <ele>142.889999</ele>
        <time>2020-12-05T14:01:58Z</time>
      </trkpt>
      <trkpt lat="49.42571" lon="1.13869">
        <ele>142.889999</ele>
        <time>2020-12-05T14:01:59Z</time>
      </trkpt>
      <trkpt lat="49.42572" lon="1.13863">
        <ele>142.889999</ele>
        <time>2020-12-05T14:02:00Z</time>
      </trkpt>
      <trkpt lat="49.42574" lon="1.13859">
        <ele>142.889999</ele>
        <time>2020-12-05T14:02:01Z</time>
      </trkpt>
      <trkpt lat="49.42577" lon="1.13856">
        <ele>142.889999</ele>
        <time>2020-12-05T14:02:02Z</time>
      </trkpt>
      <trkpt lat="49.4258" lon="1.13851">
        <ele>142.889999</ele>
        <time>2020-12-05T14:02:03Z</time>
      </trkpt>
      <trkpt lat="49.42584" lon="1.13845">
        <ele>142.889999</ele>
        <time>2020-12-05T14:02:04Z</time>
      </trkpt>
      <trkpt lat="49.42585" lon="1.13844">
        <ele>142.889999</ele>
        <time>2020-12-05T14:02:05Z</time>
      </trkpt>
      <trkpt lat="49.42587" lon="1.13847">
        <ele>142.889999</ele>
        <time>2020-12-05T14:02:07Z</time>
      </trkpt>
      <trkpt lat="49.4259" lon="1.13849">
        <ele>142.889999</ele>
        <time>2020-12-05T14:02:08Z</time>
      </trkpt>
      <trkpt lat="49.42593" lon="1.13853">
        <ele>142.889999</ele>
        <time>2020-12-05T14:02:09Z</time>
      </trkpt>
      <trkpt lat="49.42596" lon="1.13859">
        <ele>142.410004</ele>
        <time>2020-12-05T14:02:10Z</time>
      </trkpt>
      <trkpt lat="49.42599" lon="1.13866">
        <ele>142.889999</ele>
        <time>2020-12-05T14:02:11Z</time>
      </trkpt>
      <trkpt lat="49.42602" lon="1.13873">
        <ele>143.369995</ele>
        <time>2020-12-05T14:02:12Z</time>
      </trkpt>
      <trkpt lat="49.42606" lon="1.13879">
        <ele>143.369995</ele>
        <time>2020-12-05T14:02:13Z</time>
      </trkpt>
      <trkpt lat="49.42611" lon="1.13884">
        <ele>143.369995</ele>
        <time>2020-12-05T14:02:14Z</time>
      </trkpt>
      <trkpt lat="49.42617" lon="1.13888">
        <ele>143.369995</ele>
        <time>2020-12-05T14:02:15Z</time>
      </trkpt>
      <trkpt lat="49.42633" lon="1.139">
        <ele>143.369995</ele>
        <time>2020-12-05T14:02:18Z</time>
      </trkpt>
      <trkpt lat="49.4266" lon="1.13896">
        <ele>140.970001</ele>
        <time>2020-12-05T14:02:24Z</time>
      </trkpt>
      <trkpt lat="49.42664" lon="1.13892">
        <ele>140.970001</ele>
        <time>2020-12-05T14:02:25Z</time>
      </trkpt>
      <trkpt lat="49.42691" lon="1.13861">
        <ele>140.970001</ele>
        <time>2020-12-05T14:02:31Z</time>
      </trkpt>
      <trkpt lat="49.42705" lon="1.13848">
        <ele>140.970001</ele>
        <time>2020-12-05T14:02:34Z</time>
      </trkpt>
      <trkpt lat="49.4271" lon="1.13851">
        <ele>140.970001</ele>
        <time>2020-12-05T14:02:35Z</time>
      </trkpt>
      <trkpt lat="49.42714" lon="1.13854">
        <ele>140.970001</ele>
        <time>2020-12-05T14:02:36Z</time>
      </trkpt>
      <trkpt lat="49.42719" lon="1.13858">
        <ele>140.970001</ele>
        <time>2020-12-05T14:02:37Z</time>
      </trkpt>
      <trkpt lat="49.42723" lon="1.13863">
        <ele>140.970001</ele>
        <time>2020-12-05T14:02:38Z</time>
      </trkpt>
      <trkpt lat="49.4272" lon="1.13897">
        <ele>140.490005</ele>
        <time>2020-12-05T14:02:43Z</time>
      </trkpt>
      <trkpt lat="49.42704" lon="1.13927">
        <ele>139.050003</ele>
        <time>2020-12-05T14:02:47Z</time>
      </trkpt>
      <trkpt lat="49.4268" lon="1.1394">
        <ele>138.570007</ele>
        <time>2020-12-05T14:02:51Z</time>
      </trkpt>
      <trkpt lat="49.42665" lon="1.13952">
        <ele>138.570007</ele>
        <time>2020-12-05T14:02:55Z</time>
      </trkpt>
      <trkpt lat="49.42667" lon="1.13959">
        <ele>138.570007</ele>
        <time>2020-12-05T14:02:56Z</time>
      </trkpt>
      <trkpt lat="49.42671" lon="1.13963">
        <ele>138.570007</ele>
        <time>2020-12-05T14:02:57Z</time>
      </trkpt>
      <trkpt lat="49.42676" lon="1.13966">
        <ele>138.570007</ele>
        <time>2020-12-05T14:02:58Z</time>
      </trkpt>
      <trkpt lat="49.42681" lon="1.13969">
        <ele>138.570007</ele>
        <time>2020-12-05T14:02:59Z</time>
      </trkpt>
      <trkpt lat="49.42686" lon="1.13974">
        <ele>138.570007</ele>
        <time>2020-12-05T14:03:00Z</time>
      </trkpt>
      <trkpt lat="49.4269" lon="1.13981">
        <ele>137.610001</ele>
        <time>2020-12-05T14:03:01Z</time>
      </trkpt>
      <trkpt lat="49.42694" lon="1.13989">
        <ele>137.610001</ele>
        <time>2020-12-05T14:03:02Z</time>
      </trkpt>
      <trkpt lat="49.42695" lon="1.13998">
        <ele>137.610001</ele>
        <time>2020-12-05T14:03:03Z</time>
      </trkpt>
      <trkpt lat="49.42696" lon="1.14008">
        <ele>137.130005</ele>
        <time>2020-12-05T14:03:04Z</time>
      </trkpt>
      <trkpt lat="49.42695" lon="1.14018">
        <ele>137.130005</ele>
        <time>2020-12-05T14:03:05Z</time>
      </trkpt>
      <trkpt lat="49.42694" lon="1.14028">
        <ele>137.130005</ele>
        <time>2020-12-05T14:03:06Z</time>
      </trkpt>
      <trkpt lat="49.42694" lon="1.14038">
        <ele>137.130005</ele>
        <time>2020-12-05T14:03:07Z</time>
      </trkpt>
      <trkpt lat="49.42694" lon="1.14048">
        <ele>137.130005</ele>
        <time>2020-12-05T14:03:08Z</time>
      </trkpt>
      <trkpt lat="49.42694" lon="1.14057">
        <ele>136.639999</ele>
        <time>2020-12-05T14:03:09Z</time>
      </trkpt>
      <trkpt lat="49.42694" lon="1.14066">
        <ele>136.160004</ele>
        <time>2020-12-05T14:03:10Z</time>
      </trkpt>
      <trkpt lat="49.42696" lon="1.14073">
        <ele>136.160004</ele>
        <time>2020-12-05T14:03:11Z</time>
      </trkpt>
      <trkpt lat="49.427" lon="1.1408">
        <ele>136.160004</ele>
        <time>2020-12-05T14:03:12Z</time>
      </trkpt>
      <trkpt lat="49.42704" lon="1.14086">
        <ele>135.679993</ele>
        <time>2020-12-05T14:03:13Z</time>
      </trkpt>
      <trkpt lat="49.42708" lon="1.14092">
        <ele>135.199997</ele>
        <time>2020-12-05T14:03:14Z</time>
      </trkpt>
      <trkpt lat="49.42712" lon="1.141">
        <ele>135.199997</ele>
        <time>2020-12-05T14:03:15Z</time>
      </trkpt>
      <trkpt lat="49.42715" lon="1.14109">
        <ele>135.199997</ele>
        <time>2020-12-05T14:03:16Z</time>
      </trkpt>
      <trkpt lat="49.42719" lon="1.14128">
        <ele>135.199997</ele>
        <time>2020-12-05T14:03:18Z</time>
      </trkpt>
      <trkpt lat="49.42721" lon="1.14138">
        <ele>135.199997</ele>
        <time>2020-12-05T14:03:19Z</time>
      </trkpt>
      <trkpt lat="49.42724" lon="1.14148">
        <ele>135.199997</ele>
        <time>2020-12-05T14:03:20Z</time>
      </trkpt>
      <trkpt lat="49.42733" lon="1.14175">
        <ele>135.199997</ele>
        <time>2020-12-05T14:03:23Z</time>
      </trkpt>
      <trkpt lat="49.42738" lon="1.14181">
        <ele>134.720001</ele>
        <time>2020-12-05T14:03:24Z</time>
      </trkpt>
      <trkpt lat="49.42743" lon="1.14185">
        <ele>134.720001</ele>
        <time>2020-12-05T14:03:25Z</time>
      </trkpt>
      <trkpt lat="49.4275" lon="1.14188">
        <ele>134.720001</ele>
        <time>2020-12-05T14:03:26Z</time>
      </trkpt>
      <trkpt lat="49.42756" lon="1.14191">
        <ele>134.240005</ele>
        <time>2020-12-05T14:03:27Z</time>
      </trkpt>
      <trkpt lat="49.42762" lon="1.14193">
        <ele>133.759995</ele>
        <time>2020-12-05T14:03:28Z</time>
      </trkpt>
      <trkpt lat="49.42769" lon="1.14193">
        <ele>133.279999</ele>
        <time>2020-12-05T14:03:29Z</time>
      </trkpt>
      <trkpt lat="49.42775" lon="1.14191">
        <ele>132.800003</ele>
        <time>2020-12-05T14:03:30Z</time>
      </trkpt>
      <trkpt lat="49.42781" lon="1.14188">
        <ele>132.320007</ele>
        <time>2020-12-05T14:03:31Z</time>
      </trkpt>
      <trkpt lat="49.42786" lon="1.14183">
        <ele>132.320007</ele>
        <time>2020-12-05T14:03:32Z</time>
      </trkpt>
      <trkpt lat="49.42791" lon="1.14177">
        <ele>132.320007</ele>
        <time>2020-12-05T14:03:33Z</time>
      </trkpt>
      <trkpt lat="49.42796" lon="1.14171">
        <ele>131.360001</ele>
        <time>2020-12-05T14:03:34Z</time>
      </trkpt>
      <trkpt lat="49.42801" lon="1.14165">
        <ele>131.360001</ele>
        <time>2020-12-05T14:03:35Z</time>
      </trkpt>
      <trkpt lat="49.42806" lon="1.1416">
        <ele>130.880005</ele>
        <time>2020-12-05T14:03:36Z</time>
      </trkpt>
      <trkpt lat="49.42812" lon="1.14156">
        <ele>130.880005</ele>
        <time>2020-12-05T14:03:37Z</time>
      </trkpt>
      <trkpt lat="49.42819" lon="1.14152">
        <ele>130.399994</ele>
        <time>2020-12-05T14:03:38Z</time>
      </trkpt>
      <trkpt lat="49.42825" lon="1.14146">
        <ele>129.429993</ele>
        <time>2020-12-05T14:03:39Z</time>
      </trkpt>
      <trkpt lat="49.42832" lon="1.1414">
        <ele>128.949997</ele>
        <time>2020-12-05T14:03:40Z</time>
      </trkpt>
      <trkpt lat="49.42839" lon="1.14135">
        <ele>128.949997</ele>
        <time>2020-12-05T14:03:41Z</time>
      </trkpt>
      <trkpt lat="49.42847" lon="1.14132">
        <ele>128.470001</ele>
        <time>2020-12-05T14:03:42Z</time>
      </trkpt>
      <trkpt lat="49.42856" lon="1.1413">
        <ele>128.470001</ele>
        <time>2020-12-05T14:03:43Z</time>
      </trkpt>
      <trkpt lat="49.4287" lon="1.14125">
        <ele>130.880005</ele>
        <time>2020-12-05T14:03:45Z</time>
      </trkpt>
      <trkpt lat="49.42877" lon="1.14122">
        <ele>132.320007</ele>
        <time>2020-12-05T14:03:46Z</time>
      </trkpt>
      <trkpt lat="49.42882" lon="1.14118">
        <ele>132.800003</ele>
        <time>2020-12-05T14:03:47Z</time>
      </trkpt>
      <trkpt lat="49.42896" lon="1.14104">
        <ele>134.720001</ele>
        <time>2020-12-05T14:03:50Z</time>
      </trkpt>
      <trkpt lat="49.429" lon="1.14097">
        <ele>135.679993</ele>
        <time>2020-12-05T14:03:51Z</time>
      </trkpt>
      <trkpt lat="49.42902" lon="1.1409">
        <ele>135.679993</ele>
        <time>2020-12-05T14:03:52Z</time>
      </trkpt>
      <trkpt lat="49.42904" lon="1.14085">
        <ele>137.130005</ele>
        <time>2020-12-05T14:03:53Z</time>
      </trkpt>
      <trkpt lat="49.42907" lon="1.1408">
        <ele>137.130005</ele>
        <time>2020-12-05T14:03:54Z</time>
      </trkpt>
      <trkpt lat="49.42912" lon="1.14075">
        <ele>137.130005</ele>
        <time>2020-12-05T14:03:55Z</time>
      </trkpt>
      <trkpt lat="49.42918" lon="1.1407">
        <ele>137.130005</ele>
        <time>2020-12-05T14:03:56Z</time>
      </trkpt>
      <trkpt lat="49.42923" lon="1.14065">
        <ele>137.130005</ele>
        <time>2020-12-05T14:03:57Z</time>
      </trkpt>
      <trkpt lat="49.42928" lon="1.1406">
        <ele>137.130005</ele>
        <time>2020-12-05T14:03:58Z</time>
      </trkpt>
      <trkpt lat="49.42934" lon="1.14055">
        <ele>136.639999</ele>
        <time>2020-12-05T14:03:59Z</time>
      </trkpt>
      <trkpt lat="49.42967" lon="1.14063">
        <ele>136.639999</ele>
        <time>2020-12-05T14:04:06Z</time>
      </trkpt>
      <trkpt lat="49.4298" lon="1.14093">
        <ele>135.199997</ele>
        <time>2020-12-05T14:04:11Z</time>
      </trkpt>
      <trkpt lat="49.42976" lon="1.14096">
        <ele>134.240005</ele>
        <time>2020-12-05T14:04:12Z</time>
      </trkpt>
      <trkpt lat="49.42973" lon="1.14098">
        <ele>134.240005</ele>
        <time>2020-12-05T14:04:13Z</time>
      </trkpt>
      <trkpt lat="49.42971" lon="1.141">
        <ele>134.240005</ele>
        <time>2020-12-05T14:04:14Z</time>
      </trkpt>
      <trkpt lat="49.42974" lon="1.14106">
        <ele>134.240005</ele>
        <time>2020-12-05T14:04:16Z</time>
      </trkpt>
      <trkpt lat="49.42977" lon="1.14108">
        <ele>133.279999</ele>
        <time>2020-12-05T14:04:17Z</time>
      </trkpt>
      <trkpt lat="49.4298" lon="1.14109">
        <ele>133.279999</ele>
        <time>2020-12-05T14:04:18Z</time>
      </trkpt>
      <trkpt lat="49.42985" lon="1.1411">
        <ele>133.279999</ele>
        <time>2020-12-05T14:04:19Z</time>
      </trkpt>
      <trkpt lat="49.42991" lon="1.14112">
        <ele>133.279999</ele>
        <time>2020-12-05T14:04:20Z</time>
      </trkpt>
      <trkpt lat="49.42997" lon="1.14114">
        <ele>133.279999</ele>
        <time>2020-12-05T14:04:21Z</time>
      </trkpt>
      <trkpt lat="49.43014" lon="1.14125">
        <ele>131.839996</ele>
        <time>2020-12-05T14:04:24Z</time>
      </trkpt>
      <trkpt lat="49.43018" lon="1.1413">
        <ele>131.360001</ele>
        <time>2020-12-05T14:04:25Z</time>
      </trkpt>
      <trkpt lat="49.43023" lon="1.14136">
        <ele>131.360001</ele>
        <time>2020-12-05T14:04:26Z</time>
      </trkpt>
      <trkpt lat="49.43028" lon="1.14141">
        <ele>130.399994</ele>
        <time>2020-12-05T14:04:27Z</time>
      </trkpt>
      <trkpt lat="49.43033" lon="1.14145">
        <ele>129.429993</ele>
        <time>2020-12-05T14:04:28Z</time>
      </trkpt>
      <trkpt lat="49.43036" lon="1.14151">
        <ele>128.470001</ele>
        <time>2020-12-05T14:04:29Z</time>
      </trkpt>
      <trkpt lat="49.4305" lon="1.14193">
        <ele>123.669998</ele>
        <time>2020-12-05T14:04:35Z</time>
      </trkpt>
      <trkpt lat="49.43047" lon="1.14208">
        <ele>121.739998</ele>
        <time>2020-12-05T14:04:38Z</time>
      </trkpt>
      <trkpt lat="49.43051" lon="1.14212">
        <ele>120.300003</ele>
        <time>2020-12-05T14:04:40Z</time>
      </trkpt>
      <trkpt lat="49.43055" lon="1.14213">
        <ele>119.339996</ele>
        <time>2020-12-05T14:04:41Z</time>
      </trkpt>
      <trkpt lat="49.43058" lon="1.14214">
        <ele>118.860001</ele>
        <time>2020-12-05T14:04:42Z</time>
      </trkpt>
      <trkpt lat="49.4307" lon="1.14211">
        <ele>117.419998</ele>
        <time>2020-12-05T14:04:45Z</time>
      </trkpt>
      <trkpt lat="49.43091" lon="1.14228">
        <ele>113.57</ele>
        <time>2020-12-05T14:04:50Z</time>
      </trkpt>
      <trkpt lat="49.43095" lon="1.1423">
        <ele>112.129997</ele>
        <time>2020-12-05T14:04:51Z</time>
      </trkpt>
      <trkpt lat="49.43104" lon="1.14249">
        <ele>107.32</ele>
        <time>2020-12-05T14:04:56Z</time>
      </trkpt>
      <trkpt lat="49.43102" lon="1.14271">
        <ele>105.879997</ele>
        <time>2020-12-05T14:04:59Z</time>
      </trkpt>
      <trkpt lat="49.43106" lon="1.14271">
        <ele>104.440002</ele>
        <time>2020-12-05T14:05:00Z</time>
      </trkpt>
      <trkpt lat="49.43111" lon="1.14271">
        <ele>103.480003</ele>
        <time>2020-12-05T14:05:01Z</time>
      </trkpt>
      <trkpt lat="49.43116" lon="1.14269">
        <ele>103</ele>
        <time>2020-12-05T14:05:02Z</time>
      </trkpt>
      <trkpt lat="49.43121" lon="1.14268">
        <ele>102.040001</ele>
        <time>2020-12-05T14:05:03Z</time>
      </trkpt>
      <trkpt lat="49.43127" lon="1.14269">
        <ele>100.599998</ele>
        <time>2020-12-05T14:05:04Z</time>
      </trkpt>
      <trkpt lat="49.4313" lon="1.14272">
        <ele>99.150002</ele>
        <time>2020-12-05T14:05:05Z</time>
      </trkpt>
      <trkpt lat="49.43131" lon="1.14278">
        <ele>98.669998</ele>
        <time>2020-12-05T14:05:06Z</time>
      </trkpt>
      <trkpt lat="49.43133" lon="1.14282">
        <ele>98.190002</ele>
        <time>2020-12-05T14:05:07Z</time>
      </trkpt>
      <trkpt lat="49.43134" lon="1.14285">
        <ele>97.230003</ele>
        <time>2020-12-05T14:05:08Z</time>
      </trkpt>
      <trkpt lat="49.43137" lon="1.14285">
        <ele>96.75</ele>
        <time>2020-12-05T14:05:09Z</time>
      </trkpt>
      <trkpt lat="49.43139" lon="1.14283">
        <ele>96.75</ele>
        <time>2020-12-05T14:05:10Z</time>
      </trkpt>
      <trkpt lat="49.43142" lon="1.14281">
        <ele>96.269997</ele>
        <time>2020-12-05T14:05:11Z</time>
      </trkpt>
      <trkpt lat="49.43145" lon="1.1428">
        <ele>96.269997</ele>
        <time>2020-12-05T14:05:12Z</time>
      </trkpt>
      <trkpt lat="49.43148" lon="1.14279">
        <ele>96.75</ele>
        <time>2020-12-05T14:05:13Z</time>
      </trkpt>
      <trkpt lat="49.43151" lon="1.14276">
        <ele>96.269997</ele>
        <time>2020-12-05T14:05:14Z</time>
      </trkpt>
      <trkpt lat="49.43154" lon="1.14272">
        <ele>96.269997</ele>
        <time>2020-12-05T14:05:15Z</time>
      </trkpt>
      <trkpt lat="49.43158" lon="1.14268">
        <ele>95.790001</ele>
        <time>2020-12-05T14:05:16Z</time>
      </trkpt>
      <trkpt lat="49.43162" lon="1.14265">
        <ele>96.269997</ele>
        <time>2020-12-05T14:05:17Z</time>
      </trkpt>
      <trkpt lat="49.43167" lon="1.14263">
        <ele>96.269997</ele>
        <time>2020-12-05T14:05:18Z</time>
      </trkpt>
      <trkpt lat="49.43171" lon="1.1426">
        <ele>96.269997</ele>
        <time>2020-12-05T14:05:19Z</time>
      </trkpt>
      <trkpt lat="49.43174" lon="1.14256">
        <ele>96.269997</ele>
        <time>2020-12-05T14:05:20Z</time>
      </trkpt>
      <trkpt lat="49.43181" lon="1.1425">
        <ele>97.709999</ele>
        <time>2020-12-05T14:05:22Z</time>
      </trkpt>
      <trkpt lat="49.43185" lon="1.14247">
        <ele>97.709999</ele>
        <time>2020-12-05T14:05:23Z</time>
      </trkpt>
      <trkpt lat="49.43188" lon="1.14244">
        <ele>98.190002</ele>
        <time>2020-12-05T14:05:24Z</time>
      </trkpt>
      <trkpt lat="49.43191" lon="1.14239">
        <ele>98.190002</ele>
        <time>2020-12-05T14:05:25Z</time>
      </trkpt>
      <trkpt lat="49.43193" lon="1.14235">
        <ele>98.669998</ele>
        <time>2020-12-05T14:05:26Z</time>
      </trkpt>
      <trkpt lat="49.43195" lon="1.1423">
        <ele>99.150002</ele>
        <time>2020-12-05T14:05:27Z</time>
      </trkpt>
      <trkpt lat="49.43195" lon="1.14225">
        <ele>99.629997</ele>
        <time>2020-12-05T14:05:28Z</time>
      </trkpt>
      <trkpt lat="49.43197" lon="1.14217">
        <ele>100.599998</ele>
        <time>2020-12-05T14:05:30Z</time>
      </trkpt>
      <trkpt lat="49.43197" lon="1.14213">
        <ele>101.559998</ele>
        <time>2020-12-05T14:05:31Z</time>
      </trkpt>
      <trkpt lat="49.43194" lon="1.14207">
        <ele>103</ele>
        <time>2020-12-05T14:05:34Z</time>
      </trkpt>
      <trkpt lat="49.43189" lon="1.14205">
        <ele>104.919998</ele>
        <time>2020-12-05T14:05:37Z</time>
      </trkpt>
      <trkpt lat="49.43187" lon="1.14207">
        <ele>105.400002</ele>
        <time>2020-12-05T14:05:38Z</time>
      </trkpt>
      <trkpt lat="49.43164" lon="1.14211">
        <ele>107.809998</ele>
        <time>2020-12-05T14:05:49Z</time>
      </trkpt>
      <trkpt lat="49.43157" lon="1.14206">
        <ele>110.690002</ele>
        <time>2020-12-05T14:05:54Z</time>
      </trkpt>
      <trkpt lat="49.43152" lon="1.14201">
        <ele>112.129997</ele>
        <time>2020-12-05T14:05:58Z</time>
      </trkpt>
      <trkpt lat="49.43149" lon="1.14187">
        <ele>115.5</ele>
        <time>2020-12-05T14:06:05Z</time>
      </trkpt>
      <trkpt lat="49.43152" lon="1.14167">
        <ele>117.419998</ele>
        <time>2020-12-05T14:06:14Z</time>
      </trkpt>
      <trkpt lat="49.4315" lon="1.14165">
        <ele>117.419998</ele>
        <time>2020-12-05T14:06:15Z</time>
      </trkpt>
      <trkpt lat="49.43129" lon="1.1417">
        <ele>119.82</ele>
        <time>2020-12-05T14:06:25Z</time>
      </trkpt>
      <trkpt lat="49.43103" lon="1.14163">
        <ele>123.190002</ele>
        <time>2020-12-05T14:06:38Z</time>
      </trkpt>
      <trkpt lat="49.43102" lon="1.14153">
        <ele>125.110001</ele>
        <time>2020-12-05T14:06:42Z</time>
      </trkpt>
      <trkpt lat="49.43092" lon="1.14128">
        <ele>127.989998</ele>
        <time>2020-12-05T14:06:51Z</time>
      </trkpt>
      <trkpt lat="49.43083" lon="1.14133">
        <ele>128.470001</ele>
        <time>2020-12-05T14:06:54Z</time>
      </trkpt>
      <trkpt lat="49.43071" lon="1.14141">
        <ele>128.949997</ele>
        <time>2020-12-05T14:06:57Z</time>
      </trkpt>
      <trkpt lat="49.4306" lon="1.14144">
        <ele>128.949997</ele>
        <time>2020-12-05T14:07:00Z</time>
      </trkpt>
      <trkpt lat="49.43056" lon="1.14139">
        <ele>128.949997</ele>
        <time>2020-12-05T14:07:01Z</time>
      </trkpt>
      <trkpt lat="49.43055" lon="1.14134">
        <ele>129.429993</ele>
        <time>2020-12-05T14:07:02Z</time>
      </trkpt>
      <trkpt lat="49.43055" lon="1.1413">
        <ele>129.429993</ele>
        <time>2020-12-05T14:07:03Z</time>
      </trkpt>
      <trkpt lat="49.43054" lon="1.14124">
        <ele>130.399994</ele>
        <time>2020-12-05T14:07:04Z</time>
      </trkpt>
      <trkpt lat="49.43054" lon="1.14117">
        <ele>130.399994</ele>
        <time>2020-12-05T14:07:05Z</time>
      </trkpt>
      <trkpt lat="49.43055" lon="1.1411">
        <ele>130.880005</ele>
        <time>2020-12-05T14:07:06Z</time>
      </trkpt>
      <trkpt lat="49.43055" lon="1.14105">
        <ele>130.880005</ele>
        <time>2020-12-05T14:07:07Z</time>
      </trkpt>
      <trkpt lat="49.43056" lon="1.14101">
        <ele>131.839996</ele>
        <time>2020-12-05T14:07:08Z</time>
      </trkpt>
      <trkpt lat="49.43058" lon="1.14099">
        <ele>131.839996</ele>
        <time>2020-12-05T14:07:09Z</time>
      </trkpt>
      <trkpt lat="49.43061" lon="1.14099">
        <ele>132.320007</ele>
        <time>2020-12-05T14:07:10Z</time>
      </trkpt>
      <trkpt lat="49.43065" lon="1.14098">
        <ele>132.320007</ele>
        <time>2020-12-05T14:07:11Z</time>
      </trkpt>
      <trkpt lat="49.43067" lon="1.14096">
        <ele>132.320007</ele>
        <time>2020-12-05T14:07:12Z</time>
      </trkpt>
      <trkpt lat="49.4307" lon="1.14094">
        <ele>132.320007</ele>
        <time>2020-12-05T14:07:13Z</time>
      </trkpt>
      <trkpt lat="49.43073" lon="1.14091">
        <ele>132.320007</ele>
        <time>2020-12-05T14:07:20Z</time>
      </trkpt>
      <trkpt lat="49.43067" lon="1.14096">
        <ele>132.320007</ele>
        <time>2020-12-05T14:07:24Z</time>
      </trkpt>
      <trkpt lat="49.43064" lon="1.14097">
        <ele>132.320007</ele>
        <time>2020-12-05T14:07:25Z</time>
      </trkpt>
      <trkpt lat="49.43059" lon="1.14095">
        <ele>132.320007</ele>
        <time>2020-12-05T14:07:27Z</time>
      </trkpt>
      <trkpt lat="49.43056" lon="1.14092">
        <ele>132.320007</ele>
        <time>2020-12-05T14:07:28Z</time>
      </trkpt>
      <trkpt lat="49.43055" lon="1.14089">
        <ele>132.320007</ele>
        <time>2020-12-05T14:07:29Z</time>
      </trkpt>
      <trkpt lat="49.43053" lon="1.14086">
        <ele>132.800003</ele>
        <time>2020-12-05T14:07:30Z</time>
      </trkpt>
      <trkpt lat="49.43051" lon="1.14084">
        <ele>132.800003</ele>
        <time>2020-12-05T14:07:31Z</time>
      </trkpt>
      <trkpt lat="49.43049" lon="1.14082">
        <ele>133.279999</ele>
        <time>2020-12-05T14:07:32Z</time>
      </trkpt>
      <trkpt lat="49.43048" lon="1.14081">
        <ele>133.279999</ele>
        <time>2020-12-05T14:07:33Z</time>
      </trkpt>
      <trkpt lat="49.43046" lon="1.1408">
        <ele>133.279999</ele>
        <time>2020-12-05T14:07:34Z</time>
      </trkpt>
      <trkpt lat="49.43041" lon="1.14061">
        <ele>135.199997</ele>
        <time>2020-12-05T14:07:42Z</time>
      </trkpt>
      <trkpt lat="49.43042" lon="1.14058">
        <ele>134.720001</ele>
        <time>2020-12-05T14:07:43Z</time>
      </trkpt>
      <trkpt lat="49.43044" lon="1.14047">
        <ele>134.720001</ele>
        <time>2020-12-05T14:07:46Z</time>
      </trkpt>
      <trkpt lat="49.43044" lon="1.14043">
        <ele>134.720001</ele>
        <time>2020-12-05T14:07:47Z</time>
      </trkpt>
      <trkpt lat="49.43029" lon="1.14006">
        <ele>136.639999</ele>
        <time>2020-12-05T14:07:59Z</time>
      </trkpt>
      <trkpt lat="49.43024" lon="1.13997">
        <ele>137.130005</ele>
        <time>2020-12-05T14:08:02Z</time>
      </trkpt>
      <trkpt lat="49.43036" lon="1.13968">
        <ele>137.610001</ele>
        <time>2020-12-05T14:08:10Z</time>
      </trkpt>
      <trkpt lat="49.43046" lon="1.13963">
        <ele>137.610001</ele>
        <time>2020-12-05T14:08:12Z</time>
      </trkpt>
      <trkpt lat="49.43057" lon="1.1396">
        <ele>137.610001</ele>
        <time>2020-12-05T14:08:14Z</time>
      </trkpt>
      <trkpt lat="49.43079" lon="1.13973">
        <ele>136.160004</ele>
        <time>2020-12-05T14:08:18Z</time>
      </trkpt>
      <trkpt lat="49.43085" lon="1.1399">
        <ele>135.199997</ele>
        <time>2020-12-05T14:08:20Z</time>
      </trkpt>
      <trkpt lat="49.43085" lon="1.14">
        <ele>135.199997</ele>
        <time>2020-12-05T14:08:21Z</time>
      </trkpt>
      <trkpt lat="49.43085" lon="1.14008">
        <ele>135.199997</ele>
        <time>2020-12-05T14:08:22Z</time>
      </trkpt>
      <trkpt lat="49.43085" lon="1.14016">
        <ele>135.199997</ele>
        <time>2020-12-05T14:08:23Z</time>
      </trkpt>
      <trkpt lat="49.43085" lon="1.14024">
        <ele>134.720001</ele>
        <time>2020-12-05T14:08:24Z</time>
      </trkpt>
      <trkpt lat="49.43086" lon="1.14033">
        <ele>134.720001</ele>
        <time>2020-12-05T14:08:25Z</time>
      </trkpt>
      <trkpt lat="49.43087" lon="1.14041">
        <ele>134.240005</ele>
        <time>2020-12-05T14:08:26Z</time>
      </trkpt>
      <trkpt lat="49.43092" lon="1.14059">
        <ele>133.759995</ele>
        <time>2020-12-05T14:08:28Z</time>
      </trkpt>
      <trkpt lat="49.43096" lon="1.14066">
        <ele>133.279999</ele>
        <time>2020-12-05T14:08:29Z</time>
      </trkpt>
      <trkpt lat="49.431" lon="1.14073">
        <ele>132.320007</ele>
        <time>2020-12-05T14:08:30Z</time>
      </trkpt>
      <trkpt lat="49.43117" lon="1.14089">
        <ele>128.949997</ele>
        <time>2020-12-05T14:08:33Z</time>
      </trkpt>
      <trkpt lat="49.43153" lon="1.14089">
        <ele>123.190002</ele>
        <time>2020-12-05T14:08:39Z</time>
      </trkpt>
      <trkpt lat="49.43158" lon="1.1409">
        <ele>122.220001</ele>
        <time>2020-12-05T14:08:40Z</time>
      </trkpt>
      <trkpt lat="49.43165" lon="1.14083">
        <ele>120.300003</ele>
        <time>2020-12-05T14:08:42Z</time>
      </trkpt>
      <trkpt lat="49.43167" lon="1.14076">
        <ele>120.300003</ele>
        <time>2020-12-05T14:08:43Z</time>
      </trkpt>
      <trkpt lat="49.43168" lon="1.1407">
        <ele>119.82</ele>
        <time>2020-12-05T14:08:44Z</time>
      </trkpt>
      <trkpt lat="49.43168" lon="1.14061">
        <ele>119.82</ele>
        <time>2020-12-05T14:08:45Z</time>
      </trkpt>
      <trkpt lat="49.43168" lon="1.14052">
        <ele>119.339996</ele>
        <time>2020-12-05T14:08:46Z</time>
      </trkpt>
      <trkpt lat="49.43167" lon="1.14033">
        <ele>121.260002</ele>
        <time>2020-12-05T14:08:48Z</time>
      </trkpt>
      <trkpt lat="49.43166" lon="1.14023">
        <ele>122.220001</ele>
        <time>2020-12-05T14:08:49Z</time>
      </trkpt>
      <trkpt lat="49.43165" lon="1.14012">
        <ele>122.220001</ele>
        <time>2020-12-05T14:08:50Z</time>
      </trkpt>
      <trkpt lat="49.43164" lon="1.14002">
        <ele>122.220001</ele>
        <time>2020-12-05T14:08:51Z</time>
      </trkpt>
      <trkpt lat="49.43163" lon="1.13992">
        <ele>122.709999</ele>
        <time>2020-12-05T14:08:52Z</time>
      </trkpt>
      <trkpt lat="49.43161" lon="1.13984">
        <ele>123.669998</ele>
        <time>2020-12-05T14:08:53Z</time>
      </trkpt>
      <trkpt lat="49.43159" lon="1.13976">
        <ele>124.629997</ele>
        <time>2020-12-05T14:08:54Z</time>
      </trkpt>
      <trkpt lat="49.43156" lon="1.13969">
        <ele>125.110001</ele>
        <time>2020-12-05T14:08:55Z</time>
      </trkpt>
      <trkpt lat="49.43154" lon="1.13963">
        <ele>126.07</ele>
        <time>2020-12-05T14:08:56Z</time>
      </trkpt>
      <trkpt lat="49.4315" lon="1.13959">
        <ele>126.550003</ele>
        <time>2020-12-05T14:08:57Z</time>
      </trkpt>
      <trkpt lat="49.43137" lon="1.13957">
        <ele>129.919998</ele>
        <time>2020-12-05T14:09:01Z</time>
      </trkpt>
      <trkpt lat="49.43134" lon="1.13952">
        <ele>130.399994</ele>
        <time>2020-12-05T14:09:03Z</time>
      </trkpt>
      <trkpt lat="49.43135" lon="1.1394">
        <ele>130.399994</ele>
        <time>2020-12-05T14:09:05Z</time>
      </trkpt>
      <trkpt lat="49.43139" lon="1.13915">
        <ele>130.880005</ele>
        <time>2020-12-05T14:09:08Z</time>
      </trkpt>
      <trkpt lat="49.4314" lon="1.13909">
        <ele>130.880005</ele>
        <time>2020-12-05T14:09:09Z</time>
      </trkpt>
      <trkpt lat="49.43143" lon="1.13902">
        <ele>128.949997</ele>
        <time>2020-12-05T14:09:10Z</time>
      </trkpt>
      <trkpt lat="49.43145" lon="1.13894">
        <ele>127.029999</ele>
        <time>2020-12-05T14:09:11Z</time>
      </trkpt>
      <trkpt lat="49.43151" lon="1.13844">
        <ele>120.779999</ele>
        <time>2020-12-05T14:09:19Z</time>
      </trkpt>
      <trkpt lat="49.43151" lon="1.13839">
        <ele>120.779999</ele>
        <time>2020-12-05T14:09:20Z</time>
      </trkpt>
      <trkpt lat="49.43144" lon="1.1381">
        <ele>122.709999</ele>
        <time>2020-12-05T14:09:26Z</time>
      </trkpt>
      <trkpt lat="49.43138" lon="1.13785">
        <ele>126.07</ele>
        <time>2020-12-05T14:09:32Z</time>
      </trkpt>
      <trkpt lat="49.43137" lon="1.13782">
        <ele>126.07</ele>
        <time>2020-12-05T14:09:33Z</time>
      </trkpt>
      <trkpt lat="49.43129" lon="1.13754">
        <ele>129.429993</ele>
        <time>2020-12-05T14:09:42Z</time>
      </trkpt>
      <trkpt lat="49.43125" lon="1.1374">
        <ele>130.399994</ele>
        <time>2020-12-05T14:09:46Z</time>
      </trkpt>
      <trkpt lat="49.43113" lon="1.13695">
        <ele>131.360001</ele>
        <time>2020-12-05T14:09:57Z</time>
      </trkpt>
      <trkpt lat="49.43109" lon="1.13679">
        <ele>132.800003</ele>
        <time>2020-12-05T14:10:02Z</time>
      </trkpt>
      <trkpt lat="49.43104" lon="1.13675">
        <ele>134.240005</ele>
        <time>2020-12-05T14:10:05Z</time>
      </trkpt>
      <trkpt lat="49.431" lon="1.13679">
        <ele>134.720001</ele>
        <time>2020-12-05T14:10:07Z</time>
      </trkpt>
      <trkpt lat="49.43099" lon="1.13682">
        <ele>135.199997</ele>
        <time>2020-12-05T14:10:08Z</time>
      </trkpt>
      <trkpt lat="49.43076" lon="1.13698">
        <ele>138.089996</ele>
        <time>2020-12-05T14:10:19Z</time>
      </trkpt>
      <trkpt lat="49.4307" lon="1.13698">
        <ele>138.089996</ele>
        <time>2020-12-05T14:10:21Z</time>
      </trkpt>
      <trkpt lat="49.43056" lon="1.13695">
        <ele>138.089996</ele>
        <time>2020-12-05T14:10:25Z</time>
      </trkpt>
      <trkpt lat="49.43026" lon="1.13698">
        <ele>139.529999</ele>
        <time>2020-12-05T14:10:34Z</time>
      </trkpt>
      <trkpt lat="49.43006" lon="1.1369">
        <ele>140.490005</ele>
        <time>2020-12-05T14:10:39Z</time>
      </trkpt>
      <trkpt lat="49.4299" lon="1.13703">
        <ele>140.490005</ele>
        <time>2020-12-05T14:10:43Z</time>
      </trkpt>
      <trkpt lat="49.42954" lon="1.13751">
        <ele>140.970001</ele>
        <time>2020-12-05T14:10:53Z</time>
      </trkpt>
      <trkpt lat="49.42961" lon="1.13773">
        <ele>140.970001</ele>
        <time>2020-12-05T14:10:58Z</time>
      </trkpt>
      <trkpt lat="49.42971" lon="1.13775">
        <ele>140.970001</ele>
        <time>2020-12-05T14:11:00Z</time>
      </trkpt>
      <trkpt lat="49.42987" lon="1.13773">
        <ele>140.970001</ele>
        <time>2020-12-05T14:11:03Z</time>
      </trkpt>
      <trkpt lat="49.4301" lon="1.13753">
        <ele>140.970001</ele>
        <time>2020-12-05T14:11:08Z</time>
      </trkpt>
      <trkpt lat="49.43042" lon="1.13753">
        <ele>139.529999</ele>
        <time>2020-12-05T14:11:14Z</time>
      </trkpt>
      <trkpt lat="49.43042" lon="1.13794">
        <ele>138.089996</ele>
        <time>2020-12-05T14:11:23Z</time>
      </trkpt>
      <trkpt lat="49.4303" lon="1.13808">
        <ele>138.089996</ele>
        <time>2020-12-05T14:11:27Z</time>
      </trkpt>
      <trkpt lat="49.4304" lon="1.13816">
        <ele>138.089996</ele>
        <time>2020-12-05T14:11:31Z</time>
      </trkpt>
      <trkpt lat="49.43058" lon="1.1386">
        <ele>137.130005</ele>
        <time>2020-12-05T14:11:40Z</time>
      </trkpt>
      <trkpt lat="49.43044" lon="1.13878">
        <ele>137.130005</ele>
        <time>2020-12-05T14:11:46Z</time>
      </trkpt>
      <trkpt lat="49.43033" lon="1.13878">
        <ele>138.570007</ele>
        <time>2020-12-05T14:11:49Z</time>
      </trkpt>
      <trkpt lat="49.43025" lon="1.13886">
        <ele>138.570007</ele>
        <time>2020-12-05T14:11:51Z</time>
      </trkpt>
      <trkpt lat="49.43015" lon="1.13899">
        <ele>138.570007</ele>
        <time>2020-12-05T14:11:54Z</time>
      </trkpt>
      <trkpt lat="49.43002" lon="1.13899">
        <ele>138.570007</ele>
        <time>2020-12-05T14:11:58Z</time>
      </trkpt>
      <trkpt lat="49.42973" lon="1.13897">
        <ele>140.009995</ele>
        <time>2020-12-05T14:12:07Z</time>
      </trkpt>
      <trkpt lat="49.42931" lon="1.13914">
        <ele>140.009995</ele>
        <time>2020-12-05T14:12:25Z</time>
      </trkpt>
      <trkpt lat="49.42914" lon="1.13926">
        <ele>140.009995</ele>
        <time>2020-12-05T14:12:44Z</time>
      </trkpt>
      <trkpt lat="49.42916" lon="1.13928">
        <ele>140.009995</ele>
        <time>2020-12-05T14:13:30Z</time>
      </trkpt>
      <trkpt lat="49.42915" lon="1.13926">
        <ele>140.009995</ele>
        <time>2020-12-05T14:13:49Z</time>
      </trkpt>
      <trkpt lat="49.42914" lon="1.13927">
        <ele>138.570007</ele>
        <time>2020-12-05T14:14:30Z</time>
      </trkpt>
      <trkpt lat="49.42915" lon="1.13925">
        <ele>138.570007</ele>
        <time>2020-12-05T14:14:47Z</time>
      </trkpt>
      <trkpt lat="49.42916" lon="1.13925">
        <ele>138.570007</ele>
        <time>2020-12-05T14:15:03Z</time>
      </trkpt>
      <trkpt lat="49.42914" lon="1.13924">
        <ele>138.570007</ele>
        <time>2020-12-05T14:15:24Z</time>
      </trkpt>
      <trkpt lat="49.42915" lon="1.13925">
        <ele>138.570007</ele>
        <time>2020-12-05T14:15:51Z</time>
      </trkpt>
      <trkpt lat="49.42915" lon="1.13923">
        <ele>140.009995</ele>
        <time>2020-12-05T14:16:35Z</time>
      </trkpt>
      <trkpt lat="49.42914" lon="1.13926">
        <ele>139.529999</ele>
        <time>2020-12-05T14:16:58Z</time>
      </trkpt>
      <trkpt lat="49.42916" lon="1.13925">
        <ele>139.529999</ele>
        <time>2020-12-05T14:18:09Z</time>
      </trkpt>
      <trkpt lat="49.42915" lon="1.13924">
        <ele>139.529999</ele>
        <time>2020-12-05T14:18:20Z</time>
      </trkpt>
      <trkpt lat="49.42947" lon="1.13908">
        <ele>139.529999</ele>
        <time>2020-12-05T14:18:32Z</time>
      </trkpt>
      <trkpt lat="49.42985" lon="1.1389">
        <ele>140.009995</ele>
        <time>2020-12-05T14:18:44Z</time>
      </trkpt>
      <trkpt lat="49.42997" lon="1.13893">
        <ele>140.009995</ele>
        <time>2020-12-05T14:18:49Z</time>
      </trkpt>
      <trkpt lat="49.43009" lon="1.13911">
        <ele>138.089996</ele>
        <time>2020-12-05T14:18:53Z</time>
      </trkpt>
      <trkpt lat="49.43044" lon="1.13929">
        <ele>137.130005</ele>
        <time>2020-12-05T14:19:02Z</time>
      </trkpt>
      <trkpt lat="49.43055" lon="1.13952">
        <ele>136.639999</ele>
        <time>2020-12-05T14:19:06Z</time>
      </trkpt>
      <trkpt lat="49.43063" lon="1.13953">
        <ele>135.679993</ele>
        <time>2020-12-05T14:19:08Z</time>
      </trkpt>
      <trkpt lat="49.43066" lon="1.1395">
        <ele>135.679993</ele>
        <time>2020-12-05T14:19:09Z</time>
      </trkpt>
      <trkpt lat="49.43068" lon="1.13947">
        <ele>135.679993</ele>
        <time>2020-12-05T14:19:10Z</time>
      </trkpt>
      <trkpt lat="49.43069" lon="1.13943">
        <ele>135.679993</ele>
        <time>2020-12-05T14:19:11Z</time>
      </trkpt>
      <trkpt lat="49.43069" lon="1.13937">
        <ele>135.679993</ele>
        <time>2020-12-05T14:19:12Z</time>
      </trkpt>
      <trkpt lat="49.43069" lon="1.13931">
        <ele>135.679993</ele>
        <time>2020-12-05T14:19:13Z</time>
      </trkpt>
      <trkpt lat="49.43068" lon="1.13923">
        <ele>135.679993</ele>
        <time>2020-12-05T14:19:14Z</time>
      </trkpt>
      <trkpt lat="49.43068" lon="1.13915">
        <ele>135.679993</ele>
        <time>2020-12-05T14:19:15Z</time>
      </trkpt>
      <trkpt lat="49.43067" lon="1.13907">
        <ele>135.679993</ele>
        <time>2020-12-05T14:19:16Z</time>
      </trkpt>
      <trkpt lat="49.43067" lon="1.139">
        <ele>135.679993</ele>
        <time>2020-12-05T14:19:17Z</time>
      </trkpt>
      <trkpt lat="49.43067" lon="1.13892">
        <ele>135.679993</ele>
        <time>2020-12-05T14:19:18Z</time>
      </trkpt>
      <trkpt lat="49.43069" lon="1.13885">
        <ele>135.679993</ele>
        <time>2020-12-05T14:19:19Z</time>
      </trkpt>
      <trkpt lat="49.43073" lon="1.13882">
        <ele>135.679993</ele>
        <time>2020-12-05T14:19:20Z</time>
      </trkpt>
      <trkpt lat="49.43078" lon="1.13879">
        <ele>135.679993</ele>
        <time>2020-12-05T14:19:21Z</time>
      </trkpt>
      <trkpt lat="49.43082" lon="1.13875">
        <ele>135.679993</ele>
        <time>2020-12-05T14:19:22Z</time>
      </trkpt>
      <trkpt lat="49.43085" lon="1.1387">
        <ele>135.679993</ele>
        <time>2020-12-05T14:19:23Z</time>
      </trkpt>
      <trkpt lat="49.43088" lon="1.13862">
        <ele>135.679993</ele>
        <time>2020-12-05T14:19:24Z</time>
      </trkpt>
      <trkpt lat="49.43089" lon="1.13853">
        <ele>135.679993</ele>
        <time>2020-12-05T14:19:25Z</time>
      </trkpt>
      <trkpt lat="49.4309" lon="1.13844">
        <ele>135.679993</ele>
        <time>2020-12-05T14:19:26Z</time>
      </trkpt>
      <trkpt lat="49.43091" lon="1.13834">
        <ele>135.679993</ele>
        <time>2020-12-05T14:19:27Z</time>
      </trkpt>
      <trkpt lat="49.43093" lon="1.13825">
        <ele>135.199997</ele>
        <time>2020-12-05T14:19:28Z</time>
      </trkpt>
      <trkpt lat="49.43093" lon="1.13815">
        <ele>135.199997</ele>
        <time>2020-12-05T14:19:29Z</time>
      </trkpt>
      <trkpt lat="49.43092" lon="1.13807">
        <ele>135.199997</ele>
        <time>2020-12-05T14:19:30Z</time>
      </trkpt>
      <trkpt lat="49.4309" lon="1.13799">
        <ele>135.199997</ele>
        <time>2020-12-05T14:19:31Z</time>
      </trkpt>
      <trkpt lat="49.43088" lon="1.13792">
        <ele>135.199997</ele>
        <time>2020-12-05T14:19:32Z</time>
      </trkpt>
      <trkpt lat="49.43086" lon="1.13782">
        <ele>135.199997</ele>
        <time>2020-12-05T14:19:34Z</time>
      </trkpt>
      <trkpt lat="49.43087" lon="1.13779">
        <ele>135.199997</ele>
        <time>2020-12-05T14:19:35Z</time>
      </trkpt>
      <trkpt lat="49.43089" lon="1.13777">
        <ele>135.199997</ele>
        <time>2020-12-05T14:19:36Z</time>
      </trkpt>
      <trkpt lat="49.43095" lon="1.13774">
        <ele>135.199997</ele>
        <time>2020-12-05T14:19:38Z</time>
      </trkpt>
      <trkpt lat="49.43098" lon="1.13771">
        <ele>134.720001</ele>
        <time>2020-12-05T14:19:39Z</time>
      </trkpt>
      <trkpt lat="49.43098" lon="1.13769">
        <ele>134.720001</ele>
        <time>2020-12-05T14:19:40Z</time>
      </trkpt>
      <trkpt lat="49.43098" lon="1.13765">
        <ele>134.720001</ele>
        <time>2020-12-05T14:19:41Z</time>
      </trkpt>
      <trkpt lat="49.431" lon="1.13763">
        <ele>134.720001</ele>
        <time>2020-12-05T14:19:42Z</time>
      </trkpt>
      <trkpt lat="49.43114" lon="1.1375">
        <ele>131.360001</ele>
        <time>2020-12-05T14:19:46Z</time>
      </trkpt>
      <trkpt lat="49.43116" lon="1.13729">
        <ele>129.919998</ele>
        <time>2020-12-05T14:19:49Z</time>
      </trkpt>
      <trkpt lat="49.43111" lon="1.13704">
        <ele>129.919998</ele>
        <time>2020-12-05T14:19:52Z</time>
      </trkpt>
      <trkpt lat="49.43106" lon="1.1368">
        <ele>131.839996</ele>
        <time>2020-12-05T14:19:55Z</time>
      </trkpt>
      <trkpt lat="49.43105" lon="1.13673">
        <ele>132.800003</ele>
        <time>2020-12-05T14:19:56Z</time>
      </trkpt>
      <trkpt lat="49.43104" lon="1.13666">
        <ele>132.800003</ele>
        <time>2020-12-05T14:19:57Z</time>
      </trkpt>
      <trkpt lat="49.43105" lon="1.13658">
        <ele>133.279999</ele>
        <time>2020-12-05T14:19:58Z</time>
      </trkpt>
      <trkpt lat="49.43106" lon="1.1365">
        <ele>133.279999</ele>
        <time>2020-12-05T14:19:59Z</time>
      </trkpt>
      <trkpt lat="49.43107" lon="1.13642">
        <ele>133.279999</ele>
        <time>2020-12-05T14:20:00Z</time>
      </trkpt>
      <trkpt lat="49.4311" lon="1.13625">
        <ele>133.279999</ele>
        <time>2020-12-05T14:20:02Z</time>
      </trkpt>
      <trkpt lat="49.43112" lon="1.13608">
        <ele>130.880005</ele>
        <time>2020-12-05T14:20:04Z</time>
      </trkpt>
      <trkpt lat="49.43114" lon="1.13602">
        <ele>130.399994</ele>
        <time>2020-12-05T14:20:05Z</time>
      </trkpt>
      <trkpt lat="49.43117" lon="1.13596">
        <ele>128.949997</ele>
        <time>2020-12-05T14:20:06Z</time>
      </trkpt>
      <trkpt lat="49.43118" lon="1.13591">
        <ele>127.989998</ele>
        <time>2020-12-05T14:20:07Z</time>
      </trkpt>
      <trkpt lat="49.43118" lon="1.13586">
        <ele>127.989998</ele>
        <time>2020-12-05T14:20:08Z</time>
      </trkpt>
      <trkpt lat="49.43118" lon="1.13582">
        <ele>127.989998</ele>
        <time>2020-12-05T14:20:09Z</time>
      </trkpt>
      <trkpt lat="49.43119" lon="1.13579">
        <ele>127.989998</ele>
        <time>2020-12-05T14:20:10Z</time>
      </trkpt>
      <trkpt lat="49.43118" lon="1.13575">
        <ele>127.989998</ele>
        <time>2020-12-05T14:20:12Z</time>
      </trkpt>
      <trkpt lat="49.43117" lon="1.13572">
        <ele>127.989998</ele>
        <time>2020-12-05T14:20:13Z</time>
      </trkpt>
      <trkpt lat="49.43116" lon="1.1357">
        <ele>127.989998</ele>
        <time>2020-12-05T14:20:14Z</time>
      </trkpt>
      <trkpt lat="49.43113" lon="1.1356">
        <ele>129.429993</ele>
        <time>2020-12-05T14:20:17Z</time>
      </trkpt>
      <trkpt lat="49.431" lon="1.13511">
        <ele>130.399994</ele>
        <time>2020-12-05T14:20:26Z</time>
      </trkpt>
      <trkpt lat="49.43097" lon="1.13495">
        <ele>130.399994</ele>
        <time>2020-12-05T14:20:28Z</time>
      </trkpt>
      <trkpt lat="49.43095" lon="1.13487">
        <ele>130.399994</ele>
        <time>2020-12-05T14:20:29Z</time>
      </trkpt>
      <trkpt lat="49.43093" lon="1.1348">
        <ele>128.949997</ele>
        <time>2020-12-05T14:20:30Z</time>
      </trkpt>
      <trkpt lat="49.43089" lon="1.13473">
        <ele>128.949997</ele>
        <time>2020-12-05T14:20:31Z</time>
      </trkpt>
      <trkpt lat="49.43085" lon="1.13467">
        <ele>128.949997</ele>
        <time>2020-12-05T14:20:32Z</time>
      </trkpt>
      <trkpt lat="49.43081" lon="1.1346">
        <ele>128.949997</ele>
        <time>2020-12-05T14:20:33Z</time>
      </trkpt>
      <trkpt lat="49.43071" lon="1.1344">
        <ele>130.399994</ele>
        <time>2020-12-05T14:20:36Z</time>
      </trkpt>
      <trkpt lat="49.43067" lon="1.13436">
        <ele>130.880005</ele>
        <time>2020-12-05T14:20:37Z</time>
      </trkpt>
      <trkpt lat="49.43063" lon="1.13433">
        <ele>130.880005</ele>
        <time>2020-12-05T14:20:38Z</time>
      </trkpt>
      <trkpt lat="49.43059" lon="1.13431">
        <ele>130.880005</ele>
        <time>2020-12-05T14:20:39Z</time>
      </trkpt>
      <trkpt lat="49.43056" lon="1.13428">
        <ele>130.880005</ele>
        <time>2020-12-05T14:20:40Z</time>
      </trkpt>
      <trkpt lat="49.43052" lon="1.13424">
        <ele>131.360001</ele>
        <time>2020-12-05T14:20:41Z</time>
      </trkpt>
      <trkpt lat="49.4305" lon="1.1342">
        <ele>131.360001</ele>
        <time>2020-12-05T14:20:42Z</time>
      </trkpt>
      <trkpt lat="49.43047" lon="1.13413">
        <ele>131.360001</ele>
        <time>2020-12-05T14:20:43Z</time>
      </trkpt>
      <trkpt lat="49.43044" lon="1.13406">
        <ele>131.360001</ele>
        <time>2020-12-05T14:20:44Z</time>
      </trkpt>
      <trkpt lat="49.43042" lon="1.13398">
        <ele>131.360001</ele>
        <time>2020-12-05T14:20:45Z</time>
      </trkpt>
      <trkpt lat="49.43038" lon="1.13392">
        <ele>131.360001</ele>
        <time>2020-12-05T14:20:46Z</time>
      </trkpt>
      <trkpt lat="49.43035" lon="1.13385">
        <ele>131.839996</ele>
        <time>2020-12-05T14:20:47Z</time>
      </trkpt>
      <trkpt lat="49.43031" lon="1.1338">
        <ele>131.839996</ele>
        <time>2020-12-05T14:20:48Z</time>
      </trkpt>
      <trkpt lat="49.43027" lon="1.13376">
        <ele>131.839996</ele>
        <time>2020-12-05T14:20:49Z</time>
      </trkpt>
      <trkpt lat="49.43024" lon="1.13371">
        <ele>132.320007</ele>
        <time>2020-12-05T14:20:50Z</time>
      </trkpt>
      <trkpt lat="49.43021" lon="1.13367">
        <ele>132.320007</ele>
        <time>2020-12-05T14:20:51Z</time>
      </trkpt>
      <trkpt lat="49.43004" lon="1.13326">
        <ele>133.279999</ele>
        <time>2020-12-05T14:20:59Z</time>
      </trkpt>
      <trkpt lat="49.43001" lon="1.13322">
        <ele>133.279999</ele>
        <time>2020-12-05T14:21:00Z</time>
      </trkpt>
      <trkpt lat="49.42998" lon="1.13318">
        <ele>133.759995</ele>
        <time>2020-12-05T14:21:01Z</time>
      </trkpt>
      <trkpt lat="49.42995" lon="1.13314">
        <ele>133.759995</ele>
        <time>2020-12-05T14:21:02Z</time>
      </trkpt>
      <trkpt lat="49.42993" lon="1.13309">
        <ele>133.759995</ele>
        <time>2020-12-05T14:21:03Z</time>
      </trkpt>
      <trkpt lat="49.42992" lon="1.13301">
        <ele>133.759995</ele>
        <time>2020-12-05T14:21:04Z</time>
      </trkpt>
      <trkpt lat="49.42993" lon="1.13295">
        <ele>132.320007</ele>
        <time>2020-12-05T14:21:05Z</time>
      </trkpt>
      <trkpt lat="49.42994" lon="1.13288">
        <ele>130.880005</ele>
        <time>2020-12-05T14:21:06Z</time>
      </trkpt>
      <trkpt lat="49.42996" lon="1.13274">
        <ele>129.429993</ele>
        <time>2020-12-05T14:21:08Z</time>
      </trkpt>
      <trkpt lat="49.42995" lon="1.13269">
        <ele>129.429993</ele>
        <time>2020-12-05T14:21:09Z</time>
      </trkpt>
      <trkpt lat="49.42994" lon="1.13264">
        <ele>129.429993</ele>
        <time>2020-12-05T14:21:10Z</time>
      </trkpt>
      <trkpt lat="49.42991" lon="1.13242">
        <ele>128.949997</ele>
        <time>2020-12-05T14:21:14Z</time>
      </trkpt>
      <trkpt lat="49.42989" lon="1.13239">
        <ele>128.949997</ele>
        <time>2020-12-05T14:21:15Z</time>
      </trkpt>
      <trkpt lat="49.42986" lon="1.13236">
        <ele>130.399994</ele>
        <time>2020-12-05T14:21:16Z</time>
      </trkpt>
      <trkpt lat="49.42984" lon="1.13232">
        <ele>130.880005</ele>
        <time>2020-12-05T14:21:17Z</time>
      </trkpt>
      <trkpt lat="49.42982" lon="1.13227">
        <ele>130.880005</ele>
        <time>2020-12-05T14:21:18Z</time>
      </trkpt>
      <trkpt lat="49.42974" lon="1.13195">
        <ele>131.839996</ele>
        <time>2020-12-05T14:21:24Z</time>
      </trkpt>
      <trkpt lat="49.42974" lon="1.13189">
        <ele>130.880005</ele>
        <time>2020-12-05T14:21:25Z</time>
      </trkpt>
      <trkpt lat="49.42977" lon="1.13157">
        <ele>127.029999</ele>
        <time>2020-12-05T14:21:30Z</time>
      </trkpt>
      <trkpt lat="49.42981" lon="1.13144">
        <ele>124.629997</ele>
        <time>2020-12-05T14:21:32Z</time>
      </trkpt>
      <trkpt lat="49.42981" lon="1.13138">
        <ele>123.669998</ele>
        <time>2020-12-05T14:21:33Z</time>
      </trkpt>
      <trkpt lat="49.4298" lon="1.13131">
        <ele>123.669998</ele>
        <time>2020-12-05T14:21:34Z</time>
      </trkpt>
      <trkpt lat="49.42974" lon="1.13113">
        <ele>125.589996</ele>
        <time>2020-12-05T14:21:38Z</time>
      </trkpt>
      <trkpt lat="49.42969" lon="1.13101">
        <ele>127.029999</ele>
        <time>2020-12-05T14:21:41Z</time>
      </trkpt>
      <trkpt lat="49.42968" lon="1.13097">
        <ele>127.510002</ele>
        <time>2020-12-05T14:21:42Z</time>
      </trkpt>
      <trkpt lat="49.42967" lon="1.13093">
        <ele>127.510002</ele>
        <time>2020-12-05T14:21:43Z</time>
      </trkpt>
      <trkpt lat="49.42966" lon="1.13089">
        <ele>128.470001</ele>
        <time>2020-12-05T14:21:44Z</time>
      </trkpt>
      <trkpt lat="49.42965" lon="1.13085">
        <ele>128.949997</ele>
        <time>2020-12-05T14:21:45Z</time>
      </trkpt>
      <trkpt lat="49.42959" lon="1.13053">
        <ele>131.839996</ele>
        <time>2020-12-05T14:21:55Z</time>
      </trkpt>
      <trkpt lat="49.42959" lon="1.1305">
        <ele>131.839996</ele>
        <time>2020-12-05T14:21:56Z</time>
      </trkpt>
      <trkpt lat="49.42952" lon="1.13015">
        <ele>135.199997</ele>
        <time>2020-12-05T14:22:04Z</time>
      </trkpt>
      <trkpt lat="49.42939" lon="1.13005">
        <ele>136.639999</ele>
        <time>2020-12-05T14:22:16Z</time>
      </trkpt>
      <trkpt lat="49.42938" lon="1.13004">
        <ele>136.639999</ele>
        <time>2020-12-05T14:22:17Z</time>
      </trkpt>
      <trkpt lat="49.42937" lon="1.13002">
        <ele>136.639999</ele>
        <time>2020-12-05T14:22:18Z</time>
      </trkpt>
      <trkpt lat="49.42936" lon="1.13001">
        <ele>136.639999</ele>
        <time>2020-12-05T14:22:19Z</time>
      </trkpt>
      <trkpt lat="49.42928" lon="1.12977">
        <ele>137.610001</ele>
        <time>2020-12-05T14:22:25Z</time>
      </trkpt>
      <trkpt lat="49.42929" lon="1.12971">
        <ele>137.610001</ele>
        <time>2020-12-05T14:22:26Z</time>
      </trkpt>
      <trkpt lat="49.42934" lon="1.12949">
        <ele>137.610001</ele>
        <time>2020-12-05T14:22:29Z</time>
      </trkpt>
      <trkpt lat="49.42936" lon="1.12942">
        <ele>137.610001</ele>
        <time>2020-12-05T14:22:30Z</time>
      </trkpt>
      <trkpt lat="49.42944" lon="1.12919">
        <ele>137.610001</ele>
        <time>2020-12-05T14:22:33Z</time>
      </trkpt>
      <trkpt lat="49.42949" lon="1.12914">
        <ele>137.610001</ele>
        <time>2020-12-05T14:22:34Z</time>
      </trkpt>
      <trkpt lat="49.42955" lon="1.12911">
        <ele>136.160004</ele>
        <time>2020-12-05T14:22:35Z</time>
      </trkpt>
      <trkpt lat="49.4296" lon="1.1291">
        <ele>136.160004</ele>
        <time>2020-12-05T14:22:36Z</time>
      </trkpt>
      <trkpt lat="49.42966" lon="1.12909">
        <ele>136.160004</ele>
        <time>2020-12-05T14:22:37Z</time>
      </trkpt>
      <trkpt lat="49.42971" lon="1.12909">
        <ele>136.160004</ele>
        <time>2020-12-05T14:22:38Z</time>
      </trkpt>
      <trkpt lat="49.42977" lon="1.12908">
        <ele>136.160004</ele>
        <time>2020-12-05T14:22:39Z</time>
      </trkpt>
      <trkpt lat="49.43008" lon="1.12902">
        <ele>136.160004</ele>
        <time>2020-12-05T14:22:45Z</time>
      </trkpt>
      <trkpt lat="49.43024" lon="1.12894">
        <ele>136.160004</ele>
        <time>2020-12-05T14:22:48Z</time>
      </trkpt>
      <trkpt lat="49.43029" lon="1.12889">
        <ele>136.160004</ele>
        <time>2020-12-05T14:22:49Z</time>
      </trkpt>
      <trkpt lat="49.43037" lon="1.1288">
        <ele>137.610001</ele>
        <time>2020-12-05T14:22:51Z</time>
      </trkpt>
      <trkpt lat="49.4304" lon="1.12876">
        <ele>138.089996</ele>
        <time>2020-12-05T14:22:52Z</time>
      </trkpt>
      <trkpt lat="49.43044" lon="1.1287">
        <ele>138.570007</ele>
        <time>2020-12-05T14:22:53Z</time>
      </trkpt>
      <trkpt lat="49.43046" lon="1.12864">
        <ele>138.570007</ele>
        <time>2020-12-05T14:22:54Z</time>
      </trkpt>
      <trkpt lat="49.43047" lon="1.12858">
        <ele>139.529999</ele>
        <time>2020-12-05T14:22:55Z</time>
      </trkpt>
      <trkpt lat="49.43047" lon="1.12852">
        <ele>140.009995</ele>
        <time>2020-12-05T14:22:56Z</time>
      </trkpt>
      <trkpt lat="49.43047" lon="1.12846">
        <ele>140.490005</ele>
        <time>2020-12-05T14:22:57Z</time>
      </trkpt>
      <trkpt lat="49.43046" lon="1.1284">
        <ele>140.490005</ele>
        <time>2020-12-05T14:22:58Z</time>
      </trkpt>
      <trkpt lat="49.43046" lon="1.12833">
        <ele>140.490005</ele>
        <time>2020-12-05T14:22:59Z</time>
      </trkpt>
      <trkpt lat="49.43042" lon="1.12815">
        <ele>140.970001</ele>
        <time>2020-12-05T14:23:02Z</time>
      </trkpt>
      <trkpt lat="49.43041" lon="1.12808">
        <ele>141.449997</ele>
        <time>2020-12-05T14:23:03Z</time>
      </trkpt>
      <trkpt lat="49.4304" lon="1.12796">
        <ele>141.449997</ele>
        <time>2020-12-05T14:23:05Z</time>
      </trkpt>
      <trkpt lat="49.4304" lon="1.12789">
        <ele>141.929993</ele>
        <time>2020-12-05T14:23:06Z</time>
      </trkpt>
      <trkpt lat="49.4304" lon="1.12783">
        <ele>141.929993</ele>
        <time>2020-12-05T14:23:07Z</time>
      </trkpt>
      <trkpt lat="49.43041" lon="1.12776">
        <ele>141.929993</ele>
        <time>2020-12-05T14:23:08Z</time>
      </trkpt>
      <trkpt lat="49.43043" lon="1.12769">
        <ele>142.410004</ele>
        <time>2020-12-05T14:23:09Z</time>
      </trkpt>
      <trkpt lat="49.43047" lon="1.12756">
        <ele>142.410004</ele>
        <time>2020-12-05T14:23:11Z</time>
      </trkpt>
      <trkpt lat="49.43054" lon="1.12732">
        <ele>142.889999</ele>
        <time>2020-12-05T14:23:15Z</time>
      </trkpt>
      <trkpt lat="49.43062" lon="1.12705">
        <ele>142.889999</ele>
        <time>2020-12-05T14:23:19Z</time>
      </trkpt>
      <trkpt lat="49.43065" lon="1.12698">
        <ele>142.410004</ele>
        <time>2020-12-05T14:23:20Z</time>
      </trkpt>
      <trkpt lat="49.43068" lon="1.12691">
        <ele>142.889999</ele>
        <time>2020-12-05T14:23:21Z</time>
      </trkpt>
      <trkpt lat="49.43083" lon="1.12637">
        <ele>142.410004</ele>
        <time>2020-12-05T14:23:28Z</time>
      </trkpt>
      <trkpt lat="49.43084" lon="1.12628">
        <ele>142.410004</ele>
        <time>2020-12-05T14:23:29Z</time>
      </trkpt>
      <trkpt lat="49.43086" lon="1.1262">
        <ele>142.410004</ele>
        <time>2020-12-05T14:23:30Z</time>
      </trkpt>
      <trkpt lat="49.43088" lon="1.12612">
        <ele>142.410004</ele>
        <time>2020-12-05T14:23:31Z</time>
      </trkpt>
      <trkpt lat="49.4309" lon="1.12603">
        <ele>142.410004</ele>
        <time>2020-12-05T14:23:32Z</time>
      </trkpt>
      <trkpt lat="49.43092" lon="1.12595">
        <ele>142.410004</ele>
        <time>2020-12-05T14:23:33Z</time>
      </trkpt>
      <trkpt lat="49.43095" lon="1.12588">
        <ele>142.410004</ele>
        <time>2020-12-05T14:23:34Z</time>
      </trkpt>
      <trkpt lat="49.43098" lon="1.12581">
        <ele>142.410004</ele>
        <time>2020-12-05T14:23:35Z</time>
      </trkpt>
      <trkpt lat="49.431" lon="1.12573">
        <ele>142.889999</ele>
        <time>2020-12-05T14:23:36Z</time>
      </trkpt>
      <trkpt lat="49.43102" lon="1.12566">
        <ele>142.889999</ele>
        <time>2020-12-05T14:23:37Z</time>
      </trkpt>
      <trkpt lat="49.43104" lon="1.12558">
        <ele>143.369995</ele>
        <time>2020-12-05T14:23:38Z</time>
      </trkpt>
      <trkpt lat="49.43109" lon="1.12541">
        <ele>143.369995</ele>
        <time>2020-12-05T14:23:40Z</time>
      </trkpt>
      <trkpt lat="49.43111" lon="1.12532">
        <ele>143.369995</ele>
        <time>2020-12-05T14:23:41Z</time>
      </trkpt>
      <trkpt lat="49.4314" lon="1.12436">
        <ele>141.929993</ele>
        <time>2020-12-05T14:23:52Z</time>
      </trkpt>
      <trkpt lat="49.43145" lon="1.1242">
        <ele>141.929993</ele>
        <time>2020-12-05T14:23:54Z</time>
      </trkpt>
      <trkpt lat="49.43148" lon="1.12412">
        <ele>141.449997</ele>
        <time>2020-12-05T14:23:55Z</time>
      </trkpt>
      <trkpt lat="49.4315" lon="1.12404">
        <ele>141.449997</ele>
        <time>2020-12-05T14:23:56Z</time>
      </trkpt>
      <trkpt lat="49.43155" lon="1.1238">
        <ele>141.449997</ele>
        <time>2020-12-05T14:23:59Z</time>
      </trkpt>
      <trkpt lat="49.43173" lon="1.12314">
        <ele>140.970001</ele>
        <time>2020-12-05T14:24:08Z</time>
      </trkpt>
      <trkpt lat="49.43174" lon="1.12306">
        <ele>140.970001</ele>
        <time>2020-12-05T14:24:09Z</time>
      </trkpt>
      <trkpt lat="49.43179" lon="1.12275">
        <ele>140.970001</ele>
        <time>2020-12-05T14:24:13Z</time>
      </trkpt>
      <trkpt lat="49.43178" lon="1.12267">
        <ele>140.970001</ele>
        <time>2020-12-05T14:24:14Z</time>
      </trkpt>
      <trkpt lat="49.43178" lon="1.1226">
        <ele>140.970001</ele>
        <time>2020-12-05T14:24:15Z</time>
      </trkpt>
      <trkpt lat="49.43179" lon="1.12253">
        <ele>140.970001</ele>
        <time>2020-12-05T14:24:16Z</time>
      </trkpt>
      <trkpt lat="49.43179" lon="1.12245">
        <ele>140.970001</ele>
        <time>2020-12-05T14:24:17Z</time>
      </trkpt>
      <trkpt lat="49.4318" lon="1.12237">
        <ele>140.970001</ele>
        <time>2020-12-05T14:24:18Z</time>
      </trkpt>
      <trkpt lat="49.43181" lon="1.12229">
        <ele>140.970001</ele>
        <time>2020-12-05T14:24:19Z</time>
      </trkpt>
      <trkpt lat="49.43183" lon="1.12221">
        <ele>140.970001</ele>
        <time>2020-12-05T14:24:20Z</time>
      </trkpt>
      <trkpt lat="49.43184" lon="1.12214">
        <ele>140.970001</ele>
        <time>2020-12-05T14:24:21Z</time>
      </trkpt>
      <trkpt lat="49.43185" lon="1.12206">
        <ele>140.970001</ele>
        <time>2020-12-05T14:24:22Z</time>
      </trkpt>
      <trkpt lat="49.43185" lon="1.12198">
        <ele>140.970001</ele>
        <time>2020-12-05T14:24:23Z</time>
      </trkpt>
      <trkpt lat="49.43186" lon="1.1219">
        <ele>140.970001</ele>
        <time>2020-12-05T14:24:24Z</time>
      </trkpt>
      <trkpt lat="49.43187" lon="1.12183">
        <ele>140.970001</ele>
        <time>2020-12-05T14:24:25Z</time>
      </trkpt>
      <trkpt lat="49.43186" lon="1.1217">
        <ele>140.970001</ele>
        <time>2020-12-05T14:24:27Z</time>
      </trkpt>
      <trkpt lat="49.43182" lon="1.12157">
        <ele>142.410004</ele>
        <time>2020-12-05T14:24:29Z</time>
      </trkpt>
      <trkpt lat="49.43181" lon="1.1215">
        <ele>142.410004</ele>
        <time>2020-12-05T14:24:30Z</time>
      </trkpt>
      <trkpt lat="49.4318" lon="1.12125">
        <ele>142.410004</ele>
        <time>2020-12-05T14:24:33Z</time>
      </trkpt>
      <trkpt lat="49.4318" lon="1.12116">
        <ele>142.410004</ele>
        <time>2020-12-05T14:24:34Z</time>
      </trkpt>
      <trkpt lat="49.43179" lon="1.12108">
        <ele>142.410004</ele>
        <time>2020-12-05T14:24:35Z</time>
      </trkpt>
      <trkpt lat="49.43177" lon="1.12092">
        <ele>142.410004</ele>
        <time>2020-12-05T14:24:37Z</time>
      </trkpt>
      <trkpt lat="49.43178" lon="1.12085">
        <ele>142.410004</ele>
        <time>2020-12-05T14:24:38Z</time>
      </trkpt>
      <trkpt lat="49.43181" lon="1.1208">
        <ele>142.410004</ele>
        <time>2020-12-05T14:24:39Z</time>
      </trkpt>
      <trkpt lat="49.43184" lon="1.12076">
        <ele>140.970001</ele>
        <time>2020-12-05T14:24:40Z</time>
      </trkpt>
      <trkpt lat="49.43189" lon="1.12074">
        <ele>140.970001</ele>
        <time>2020-12-05T14:24:41Z</time>
      </trkpt>
      <trkpt lat="49.43193" lon="1.12072">
        <ele>140.970001</ele>
        <time>2020-12-05T14:24:42Z</time>
      </trkpt>
      <trkpt lat="49.43197" lon="1.12068">
        <ele>140.970001</ele>
        <time>2020-12-05T14:24:43Z</time>
      </trkpt>
      <trkpt lat="49.432" lon="1.12062">
        <ele>140.970001</ele>
        <time>2020-12-05T14:24:44Z</time>
      </trkpt>
      <trkpt lat="49.43202" lon="1.12055">
        <ele>140.970001</ele>
        <time>2020-12-05T14:24:45Z</time>
      </trkpt>
      <trkpt lat="49.43204" lon="1.12048">
        <ele>140.970001</ele>
        <time>2020-12-05T14:24:46Z</time>
      </trkpt>
      <trkpt lat="49.4321" lon="1.12023">
        <ele>140.009995</ele>
        <time>2020-12-05T14:24:49Z</time>
      </trkpt>
      <trkpt lat="49.43223" lon="1.11995">
        <ele>139.050003</ele>
        <time>2020-12-05T14:24:53Z</time>
      </trkpt>
      <trkpt lat="49.43228" lon="1.11987">
        <ele>139.050003</ele>
        <time>2020-12-05T14:24:54Z</time>
      </trkpt>
      <trkpt lat="49.43238" lon="1.11962">
        <ele>136.639999</ele>
        <time>2020-12-05T14:24:57Z</time>
      </trkpt>
      <trkpt lat="49.43242" lon="1.11942">
        <ele>134.720001</ele>
        <time>2020-12-05T14:24:59Z</time>
      </trkpt>
      <trkpt lat="49.43242" lon="1.11934">
        <ele>134.720001</ele>
        <time>2020-12-05T14:25:00Z</time>
      </trkpt>
      <trkpt lat="49.43241" lon="1.11927">
        <ele>134.720001</ele>
        <time>2020-12-05T14:25:01Z</time>
      </trkpt>
      <trkpt lat="49.4324" lon="1.11921">
        <ele>134.720001</ele>
        <time>2020-12-05T14:25:02Z</time>
      </trkpt>
      <trkpt lat="49.43239" lon="1.11915">
        <ele>134.720001</ele>
        <time>2020-12-05T14:25:03Z</time>
      </trkpt>
      <trkpt lat="49.43238" lon="1.11902">
        <ele>136.639999</ele>
        <time>2020-12-05T14:25:05Z</time>
      </trkpt>
      <trkpt lat="49.43233" lon="1.11861">
        <ele>136.639999</ele>
        <time>2020-12-05T14:25:11Z</time>
      </trkpt>
      <trkpt lat="49.43226" lon="1.11794">
        <ele>139.050003</ele>
        <time>2020-12-05T14:25:22Z</time>
      </trkpt>
      <trkpt lat="49.43222" lon="1.1179">
        <ele>140.490005</ele>
        <time>2020-12-05T14:25:24Z</time>
      </trkpt>
      <trkpt lat="49.43216" lon="1.11783">
        <ele>140.970001</ele>
        <time>2020-12-05T14:25:27Z</time>
      </trkpt>
      <trkpt lat="49.43202" lon="1.11758">
        <ele>141.449997</ele>
        <time>2020-12-05T14:25:31Z</time>
      </trkpt>
      <trkpt lat="49.43202" lon="1.11752">
        <ele>141.449997</ele>
        <time>2020-12-05T14:25:32Z</time>
      </trkpt>
      <trkpt lat="49.432" lon="1.11746">
        <ele>141.449997</ele>
        <time>2020-12-05T14:25:33Z</time>
      </trkpt>
      <trkpt lat="49.43199" lon="1.1174">
        <ele>141.929993</ele>
        <time>2020-12-05T14:25:34Z</time>
      </trkpt>
      <trkpt lat="49.43199" lon="1.11734">
        <ele>141.929993</ele>
        <time>2020-12-05T14:25:35Z</time>
      </trkpt>
      <trkpt lat="49.43219" lon="1.11646">
        <ele>142.889999</ele>
        <time>2020-12-05T14:25:49Z</time>
      </trkpt>
      <trkpt lat="49.43221" lon="1.11633">
        <ele>142.889999</ele>
        <time>2020-12-05T14:25:51Z</time>
      </trkpt>
      <trkpt lat="49.43222" lon="1.11626">
        <ele>142.889999</ele>
        <time>2020-12-05T14:25:52Z</time>
      </trkpt>
      <trkpt lat="49.43238" lon="1.11553">
        <ele>142.889999</ele>
        <time>2020-12-05T14:26:02Z</time>
      </trkpt>
      <trkpt lat="49.43243" lon="1.1152">
        <ele>142.889999</ele>
        <time>2020-12-05T14:26:06Z</time>
      </trkpt>
      <trkpt lat="49.43246" lon="1.11512">
        <ele>142.889999</ele>
        <time>2020-12-05T14:26:07Z</time>
      </trkpt>
      <trkpt lat="49.43249" lon="1.11504">
        <ele>142.410004</ele>
        <time>2020-12-05T14:26:08Z</time>
      </trkpt>
      <trkpt lat="49.4326" lon="1.11476">
        <ele>140.490005</ele>
        <time>2020-12-05T14:26:11Z</time>
      </trkpt>
      <trkpt lat="49.43265" lon="1.11466">
        <ele>140.009995</ele>
        <time>2020-12-05T14:26:12Z</time>
      </trkpt>
      <trkpt lat="49.4327" lon="1.11455">
        <ele>139.529999</ele>
        <time>2020-12-05T14:26:13Z</time>
      </trkpt>
      <trkpt lat="49.43286" lon="1.11421">
        <ele>137.130005</ele>
        <time>2020-12-05T14:26:16Z</time>
      </trkpt>
      <trkpt lat="49.43303" lon="1.11389">
        <ele>138.570007</ele>
        <time>2020-12-05T14:26:19Z</time>
      </trkpt>
      <trkpt lat="49.43314" lon="1.11369">
        <ele>138.570007</ele>
        <time>2020-12-05T14:26:21Z</time>
      </trkpt>
      <trkpt lat="49.43318" lon="1.11358">
        <ele>138.570007</ele>
        <time>2020-12-05T14:26:22Z</time>
      </trkpt>
      <trkpt lat="49.4332" lon="1.11348">
        <ele>138.570007</ele>
        <time>2020-12-05T14:26:23Z</time>
      </trkpt>
      <trkpt lat="49.43321" lon="1.11339">
        <ele>139.050003</ele>
        <time>2020-12-05T14:26:24Z</time>
      </trkpt>
      <trkpt lat="49.43321" lon="1.11331">
        <ele>140.009995</ele>
        <time>2020-12-05T14:26:25Z</time>
      </trkpt>
      <trkpt lat="49.43318" lon="1.11324">
        <ele>140.970001</ele>
        <time>2020-12-05T14:26:26Z</time>
      </trkpt>
      <trkpt lat="49.43314" lon="1.1132">
        <ele>140.970001</ele>
        <time>2020-12-05T14:26:27Z</time>
      </trkpt>
      <trkpt lat="49.4331" lon="1.11317">
        <ele>141.929993</ele>
        <time>2020-12-05T14:26:28Z</time>
      </trkpt>
      <trkpt lat="49.43305" lon="1.11314">
        <ele>142.889999</ele>
        <time>2020-12-05T14:26:29Z</time>
      </trkpt>
      <trkpt lat="49.43301" lon="1.1131">
        <ele>143.369995</ele>
        <time>2020-12-05T14:26:30Z</time>
      </trkpt>
      <trkpt lat="49.43298" lon="1.11306">
        <ele>143.369995</ele>
        <time>2020-12-05T14:26:31Z</time>
      </trkpt>
      <trkpt lat="49.43296" lon="1.11299">
        <ele>143.369995</ele>
        <time>2020-12-05T14:26:32Z</time>
      </trkpt>
      <trkpt lat="49.43294" lon="1.11292">
        <ele>143.850006</ele>
        <time>2020-12-05T14:26:33Z</time>
      </trkpt>
      <trkpt lat="49.43295" lon="1.11283">
        <ele>143.850006</ele>
        <time>2020-12-05T14:26:34Z</time>
      </trkpt>
      <trkpt lat="49.43296" lon="1.11275">
        <ele>143.850006</ele>
        <time>2020-12-05T14:26:35Z</time>
      </trkpt>
      <trkpt lat="49.43298" lon="1.11266">
        <ele>143.850006</ele>
        <time>2020-12-05T14:26:36Z</time>
      </trkpt>
      <trkpt lat="49.433" lon="1.11258">
        <ele>143.850006</ele>
        <time>2020-12-05T14:26:37Z</time>
      </trkpt>
      <trkpt lat="49.43305" lon="1.11206">
        <ele>142.410004</ele>
        <time>2020-12-05T14:26:43Z</time>
      </trkpt>
      <trkpt lat="49.43311" lon="1.11145">
        <ele>142.410004</ele>
        <time>2020-12-05T14:26:51Z</time>
      </trkpt>
      <trkpt lat="49.43312" lon="1.11138">
        <ele>142.410004</ele>
        <time>2020-12-05T14:26:52Z</time>
      </trkpt>
      <trkpt lat="49.43314" lon="1.11132">
        <ele>142.410004</ele>
        <time>2020-12-05T14:26:53Z</time>
      </trkpt>
      <trkpt lat="49.43319" lon="1.11112">
        <ele>141.929993</ele>
        <time>2020-12-05T14:27:01Z</time>
      </trkpt>
      <trkpt lat="49.43321" lon="1.11111">
        <ele>141.929993</ele>
        <time>2020-12-05T14:27:05Z</time>
      </trkpt>
      <trkpt lat="49.43322" lon="1.11108">
        <ele>141.929993</ele>
        <time>2020-12-05T14:27:08Z</time>
      </trkpt>
      <trkpt lat="49.43323" lon="1.11107">
        <ele>140.970001</ele>
        <time>2020-12-05T14:27:09Z</time>
      </trkpt>
      <trkpt lat="49.43324" lon="1.11103">
        <ele>140.490005</ele>
        <time>2020-12-05T14:27:10Z</time>
      </trkpt>
      <trkpt lat="49.43328" lon="1.11089">
        <ele>137.130005</ele>
        <time>2020-12-05T14:27:12Z</time>
      </trkpt>
      <trkpt lat="49.43333" lon="1.11075">
        <ele>133.279999</ele>
        <time>2020-12-05T14:27:14Z</time>
      </trkpt>
      <trkpt lat="49.43337" lon="1.11058">
        <ele>129.429993</ele>
        <time>2020-12-05T14:27:17Z</time>
      </trkpt>
      <trkpt lat="49.4334" lon="1.11048">
        <ele>127.029999</ele>
        <time>2020-12-05T14:27:20Z</time>
      </trkpt>
      <trkpt lat="49.43337" lon="1.11038">
        <ele>126.07</ele>
        <time>2020-12-05T14:27:29Z</time>
      </trkpt>
      <trkpt lat="49.43346" lon="1.11029">
        <ele>123.190002</ele>
        <time>2020-12-05T14:27:33Z</time>
      </trkpt>
      <trkpt lat="49.43351" lon="1.11014">
        <ele>120.779999</ele>
        <time>2020-12-05T14:27:36Z</time>
      </trkpt>
      <trkpt lat="49.43353" lon="1.11004">
        <ele>120.779999</ele>
        <time>2020-12-05T14:27:39Z</time>
      </trkpt>
      <trkpt lat="49.43358" lon="1.11">
        <ele>120.300003</ele>
        <time>2020-12-05T14:27:49Z</time>
      </trkpt>
      <trkpt lat="49.43358" lon="1.10999">
        <ele>119.82</ele>
        <time>2020-12-05T14:28:06Z</time>
      </trkpt>
      <trkpt lat="49.43358" lon="1.10998">
        <ele>120.779999</ele>
        <time>2020-12-05T14:29:00Z</time>
      </trkpt>
      <trkpt lat="49.43359" lon="1.10999">
        <ele>120.300003</ele>
        <time>2020-12-05T14:30:33Z</time>
      </trkpt>
      <trkpt lat="49.43359" lon="1.11001">
        <ele>118.860001</ele>
        <time>2020-12-05T14:31:29Z</time>
      </trkpt>
      <trkpt lat="49.43358" lon="1.11003">
        <ele>119.82</ele>
        <time>2020-12-05T14:31:54Z</time>
      </trkpt>
      <trkpt lat="49.43359" lon="1.11001">
        <ele>119.82</ele>
        <time>2020-12-05T14:32:08Z</time>
      </trkpt>
      <trkpt lat="49.43362" lon="1.10996">
        <ele>120.300003</ele>
        <time>2020-12-05T14:32:26Z</time>
      </trkpt>
      <trkpt lat="49.43359" lon="1.11">
        <ele>120.300003</ele>
        <time>2020-12-05T14:32:29Z</time>
      </trkpt>
      <trkpt lat="49.43359" lon="1.10997">
        <ele>120.300003</ele>
        <time>2020-12-05T14:32:35Z</time>
      </trkpt>
      <trkpt lat="49.43357" lon="1.11003">
        <ele>120.300003</ele>
        <time>2020-12-05T14:32:44Z</time>
      </trkpt>
      <trkpt lat="49.43357" lon="1.11001">
        <ele>120.300003</ele>
        <time>2020-12-05T14:32:53Z</time>
      </trkpt>
      <trkpt lat="49.43361" lon="1.10989">
        <ele>120.300003</ele>
        <time>2020-12-05T14:33:04Z</time>
      </trkpt>
      <trkpt lat="49.4336" lon="1.10989">
        <ele>120.300003</ele>
        <time>2020-12-05T14:33:26Z</time>
      </trkpt>
      <trkpt lat="49.43359" lon="1.10992">
        <ele>119.339996</ele>
        <time>2020-12-05T14:33:53Z</time>
      </trkpt>
      <trkpt lat="49.43361" lon="1.10991">
        <ele>119.339996</ele>
        <time>2020-12-05T14:33:59Z</time>
      </trkpt>
      <trkpt lat="49.43349" lon="1.11008">
        <ele>119.339996</ele>
        <time>2020-12-05T14:34:07Z</time>
      </trkpt>
      <trkpt lat="49.43345" lon="1.11009">
        <ele>119.339996</ele>
        <time>2020-12-05T14:34:08Z</time>
      </trkpt>
      <trkpt lat="49.43343" lon="1.1101">
        <ele>119.339996</ele>
        <time>2020-12-05T14:34:09Z</time>
      </trkpt>
      <trkpt lat="49.4334" lon="1.11011">
        <ele>119.339996</ele>
        <time>2020-12-05T14:34:10Z</time>
      </trkpt>
      <trkpt lat="49.43336" lon="1.11012">
        <ele>121.260002</ele>
        <time>2020-12-05T14:34:11Z</time>
      </trkpt>
      <trkpt lat="49.43332" lon="1.11014">
        <ele>122.220001</ele>
        <time>2020-12-05T14:34:12Z</time>
      </trkpt>
      <trkpt lat="49.43329" lon="1.11015">
        <ele>120.779999</ele>
        <time>2020-12-05T14:34:13Z</time>
      </trkpt>
      <trkpt lat="49.43297" lon="1.11052">
        <ele>121.739998</ele>
        <time>2020-12-05T14:34:24Z</time>
      </trkpt>
      <trkpt lat="49.43283" lon="1.11072">
        <ele>123.190002</ele>
        <time>2020-12-05T14:34:29Z</time>
      </trkpt>
      <trkpt lat="49.43233" lon="1.11141">
        <ele>124.150002</ele>
        <time>2020-12-05T14:34:47Z</time>
      </trkpt>
      <trkpt lat="49.43217" lon="1.11164">
        <ele>126.07</ele>
        <time>2020-12-05T14:34:53Z</time>
      </trkpt>
      <trkpt lat="49.43211" lon="1.11173">
        <ele>124.629997</ele>
        <time>2020-12-05T14:34:55Z</time>
      </trkpt>
      <trkpt lat="49.43198" lon="1.11196">
        <ele>126.07</ele>
        <time>2020-12-05T14:35:00Z</time>
      </trkpt>
      <trkpt lat="49.43158" lon="1.1127">
        <ele>127.510002</ele>
        <time>2020-12-05T14:35:16Z</time>
      </trkpt>
      <trkpt lat="49.43114" lon="1.11361">
        <ele>128.949997</ele>
        <time>2020-12-05T14:35:34Z</time>
      </trkpt>
      <trkpt lat="49.43071" lon="1.11449">
        <ele>131.839996</ele>
        <time>2020-12-05T14:35:52Z</time>
      </trkpt>
      <trkpt lat="49.43032" lon="1.11538">
        <ele>133.759995</ele>
        <time>2020-12-05T14:36:10Z</time>
      </trkpt>
      <trkpt lat="49.43003" lon="1.11642">
        <ele>134.240005</ele>
        <time>2020-12-05T14:36:28Z</time>
      </trkpt>
      <trkpt lat="49.42976" lon="1.1172">
        <ele>135.199997</ele>
        <time>2020-12-05T14:36:43Z</time>
      </trkpt>
      <trkpt lat="49.42977" lon="1.11724">
        <ele>135.199997</ele>
        <time>2020-12-05T14:36:44Z</time>
      </trkpt>
      <trkpt lat="49.42982" lon="1.11724">
        <ele>135.199997</ele>
        <time>2020-12-05T14:36:46Z</time>
      </trkpt>
      <trkpt lat="49.42983" lon="1.1172">
        <ele>135.199997</ele>
        <time>2020-12-05T14:36:47Z</time>
      </trkpt>
      <trkpt lat="49.42984" lon="1.11716">
        <ele>135.199997</ele>
        <time>2020-12-05T14:36:48Z</time>
      </trkpt>
      <trkpt lat="49.42985" lon="1.11713">
        <ele>136.160004</ele>
        <time>2020-12-05T14:36:49Z</time>
      </trkpt>
      <trkpt lat="49.42987" lon="1.1171">
        <ele>136.160004</ele>
        <time>2020-12-05T14:36:50Z</time>
      </trkpt>
      <trkpt lat="49.4299" lon="1.11707">
        <ele>136.160004</ele>
        <time>2020-12-05T14:36:51Z</time>
      </trkpt>
      <trkpt lat="49.43015" lon="1.1167">
        <ele>139.050003</ele>
        <time>2020-12-05T14:37:03Z</time>
      </trkpt>
      <trkpt lat="49.4302" lon="1.11664">
        <ele>140.009995</ele>
        <time>2020-12-05T14:37:05Z</time>
      </trkpt>
      <trkpt lat="49.43035" lon="1.1165">
        <ele>143.369995</ele>
        <time>2020-12-05T14:37:11Z</time>
      </trkpt>
      <trkpt lat="49.43054" lon="1.11662">
        <ele>141.449997</ele>
        <time>2020-12-05T14:37:19Z</time>
      </trkpt>
      <trkpt lat="49.43091" lon="1.11713">
        <ele>141.449997</ele>
        <time>2020-12-05T14:37:34Z</time>
      </trkpt>
      <trkpt lat="49.43095" lon="1.11736">
        <ele>141.449997</ele>
        <time>2020-12-05T14:37:39Z</time>
      </trkpt>
      <trkpt lat="49.43094" lon="1.11739">
        <ele>141.449997</ele>
        <time>2020-12-05T14:37:40Z</time>
      </trkpt>
      <trkpt lat="49.43092" lon="1.11743">
        <ele>141.449997</ele>
        <time>2020-12-05T14:37:41Z</time>
      </trkpt>
      <trkpt lat="49.43089" lon="1.11747">
        <ele>142.889999</ele>
        <time>2020-12-05T14:37:42Z</time>
      </trkpt>
      <trkpt lat="49.43087" lon="1.11751">
        <ele>142.889999</ele>
        <time>2020-12-05T14:37:43Z</time>
      </trkpt>
      <trkpt lat="49.43084" lon="1.11755">
        <ele>142.889999</ele>
        <time>2020-12-05T14:37:44Z</time>
      </trkpt>
      <trkpt lat="49.43081" lon="1.11768">
        <ele>142.889999</ele>
        <time>2020-12-05T14:37:47Z</time>
      </trkpt>
      <trkpt lat="49.43083" lon="1.11771">
        <ele>141.449997</ele>
        <time>2020-12-05T14:37:48Z</time>
      </trkpt>
      <trkpt lat="49.43084" lon="1.11772">
        <ele>141.449997</ele>
        <time>2020-12-05T14:37:49Z</time>
      </trkpt>
      <trkpt lat="49.43086" lon="1.11775">
        <ele>141.449997</ele>
        <time>2020-12-05T14:37:50Z</time>
      </trkpt>
      <trkpt lat="49.43092" lon="1.11781">
        <ele>141.449997</ele>
        <time>2020-12-05T14:37:52Z</time>
      </trkpt>
      <trkpt lat="49.43093" lon="1.11783">
        <ele>140.970001</ele>
        <time>2020-12-05T14:37:53Z</time>
      </trkpt>
      <trkpt lat="49.43095" lon="1.11787">
        <ele>140.490005</ele>
        <time>2020-12-05T14:37:54Z</time>
      </trkpt>
      <trkpt lat="49.43098" lon="1.11794">
        <ele>139.529999</ele>
        <time>2020-12-05T14:37:55Z</time>
      </trkpt>
      <trkpt lat="49.43105" lon="1.11811">
        <ele>136.639999</ele>
        <time>2020-12-05T14:37:57Z</time>
      </trkpt>
      <trkpt lat="49.43109" lon="1.11819">
        <ele>136.639999</ele>
        <time>2020-12-05T14:37:58Z</time>
      </trkpt>
      <trkpt lat="49.43113" lon="1.11825">
        <ele>135.679993</ele>
        <time>2020-12-05T14:37:59Z</time>
      </trkpt>
      <trkpt lat="49.43117" lon="1.11828">
        <ele>135.199997</ele>
        <time>2020-12-05T14:38:00Z</time>
      </trkpt>
      <trkpt lat="49.43121" lon="1.11832">
        <ele>135.199997</ele>
        <time>2020-12-05T14:38:01Z</time>
      </trkpt>
      <trkpt lat="49.43134" lon="1.11842">
        <ele>132.800003</ele>
        <time>2020-12-05T14:38:04Z</time>
      </trkpt>
      <trkpt lat="49.43138" lon="1.11844">
        <ele>132.800003</ele>
        <time>2020-12-05T14:38:05Z</time>
      </trkpt>
      <trkpt lat="49.43141" lon="1.11846">
        <ele>131.360001</ele>
        <time>2020-12-05T14:38:06Z</time>
      </trkpt>
      <trkpt lat="49.43144" lon="1.11848">
        <ele>129.919998</ele>
        <time>2020-12-05T14:38:07Z</time>
      </trkpt>
      <trkpt lat="49.43147" lon="1.1185">
        <ele>129.919998</ele>
        <time>2020-12-05T14:38:08Z</time>
      </trkpt>
      <trkpt lat="49.43153" lon="1.11865">
        <ele>131.839996</ele>
        <time>2020-12-05T14:38:12Z</time>
      </trkpt>
      <trkpt lat="49.43158" lon="1.11882">
        <ele>132.800003</ele>
        <time>2020-12-05T14:38:15Z</time>
      </trkpt>
      <trkpt lat="49.43163" lon="1.11889">
        <ele>132.800003</ele>
        <time>2020-12-05T14:38:16Z</time>
      </trkpt>
      <trkpt lat="49.43168" lon="1.11894">
        <ele>132.800003</ele>
        <time>2020-12-05T14:38:17Z</time>
      </trkpt>
      <trkpt lat="49.43184" lon="1.11905">
        <ele>130.880005</ele>
        <time>2020-12-05T14:38:25Z</time>
      </trkpt>
      <trkpt lat="49.43188" lon="1.11909">
        <ele>130.880005</ele>
        <time>2020-12-05T14:38:31Z</time>
      </trkpt>
      <trkpt lat="49.4319" lon="1.11911">
        <ele>130.880005</ele>
        <time>2020-12-05T14:38:32Z</time>
      </trkpt>
      <trkpt lat="49.43192" lon="1.11913">
        <ele>130.880005</ele>
        <time>2020-12-05T14:38:33Z</time>
      </trkpt>
      <trkpt lat="49.43196" lon="1.11915">
        <ele>130.880005</ele>
        <time>2020-12-05T14:38:34Z</time>
      </trkpt>
      <trkpt lat="49.432" lon="1.11917">
        <ele>130.880005</ele>
        <time>2020-12-05T14:38:35Z</time>
      </trkpt>
      <trkpt lat="49.43204" lon="1.11918">
        <ele>130.880005</ele>
        <time>2020-12-05T14:38:36Z</time>
      </trkpt>
      <trkpt lat="49.43208" lon="1.11919">
        <ele>132.800003</ele>
        <time>2020-12-05T14:38:37Z</time>
      </trkpt>
      <trkpt lat="49.43212" lon="1.11922">
        <ele>133.759995</ele>
        <time>2020-12-05T14:38:39Z</time>
      </trkpt>
      <trkpt lat="49.43214" lon="1.11922">
        <ele>133.279999</ele>
        <time>2020-12-05T14:38:40Z</time>
      </trkpt>
      <trkpt lat="49.43217" lon="1.11923">
        <ele>133.279999</ele>
        <time>2020-12-05T14:38:41Z</time>
      </trkpt>
      <trkpt lat="49.43218" lon="1.11923">
        <ele>133.279999</ele>
        <time>2020-12-05T14:38:42Z</time>
      </trkpt>
      <trkpt lat="49.43225" lon="1.1192">
        <ele>133.279999</ele>
        <time>2020-12-05T14:38:47Z</time>
      </trkpt>
      <trkpt lat="49.43227" lon="1.11921">
        <ele>133.279999</ele>
        <time>2020-12-05T14:38:48Z</time>
      </trkpt>
      <trkpt lat="49.43229" lon="1.11923">
        <ele>133.759995</ele>
        <time>2020-12-05T14:38:49Z</time>
      </trkpt>
      <trkpt lat="49.43231" lon="1.11926">
        <ele>133.279999</ele>
        <time>2020-12-05T14:38:50Z</time>
      </trkpt>
      <trkpt lat="49.43233" lon="1.11931">
        <ele>133.279999</ele>
        <time>2020-12-05T14:38:51Z</time>
      </trkpt>
      <trkpt lat="49.43234" lon="1.11935">
        <ele>133.279999</ele>
        <time>2020-12-05T14:38:52Z</time>
      </trkpt>
      <trkpt lat="49.43234" lon="1.1194">
        <ele>133.279999</ele>
        <time>2020-12-05T14:38:53Z</time>
      </trkpt>
      <trkpt lat="49.43234" lon="1.11946">
        <ele>133.279999</ele>
        <time>2020-12-05T14:38:54Z</time>
      </trkpt>
      <trkpt lat="49.43234" lon="1.11952">
        <ele>133.279999</ele>
        <time>2020-12-05T14:38:55Z</time>
      </trkpt>
      <trkpt lat="49.43223" lon="1.11983">
        <ele>137.130005</ele>
        <time>2020-12-05T14:39:02Z</time>
      </trkpt>
      <trkpt lat="49.43208" lon="1.12033">
        <ele>139.050003</ele>
        <time>2020-12-05T14:39:15Z</time>
      </trkpt>
      <trkpt lat="49.432" lon="1.12062">
        <ele>139.529999</ele>
        <time>2020-12-05T14:39:21Z</time>
      </trkpt>
      <trkpt lat="49.43198" lon="1.12063">
        <ele>139.529999</ele>
        <time>2020-12-05T14:39:22Z</time>
      </trkpt>
      <trkpt lat="49.43178" lon="1.12093">
        <ele>139.529999</ele>
        <time>2020-12-05T14:39:30Z</time>
      </trkpt>
      <trkpt lat="49.43182" lon="1.12163">
        <ele>140.490005</ele>
        <time>2020-12-05T14:39:41Z</time>
      </trkpt>
      <trkpt lat="49.43183" lon="1.1217">
        <ele>140.490005</ele>
        <time>2020-12-05T14:39:42Z</time>
      </trkpt>
      <trkpt lat="49.43184" lon="1.12177">
        <ele>140.490005</ele>
        <time>2020-12-05T14:39:43Z</time>
      </trkpt>
      <trkpt lat="49.43184" lon="1.12185">
        <ele>140.490005</ele>
        <time>2020-12-05T14:39:44Z</time>
      </trkpt>
      <trkpt lat="49.43184" lon="1.12192">
        <ele>140.490005</ele>
        <time>2020-12-05T14:39:45Z</time>
      </trkpt>
      <trkpt lat="49.43183" lon="1.122">
        <ele>140.490005</ele>
        <time>2020-12-05T14:39:46Z</time>
      </trkpt>
      <trkpt lat="49.43182" lon="1.12208">
        <ele>140.490005</ele>
        <time>2020-12-05T14:39:47Z</time>
      </trkpt>
      <trkpt lat="49.43182" lon="1.12216">
        <ele>140.490005</ele>
        <time>2020-12-05T14:39:48Z</time>
      </trkpt>
      <trkpt lat="49.43179" lon="1.12246">
        <ele>140.970001</ele>
        <time>2020-12-05T14:39:52Z</time>
      </trkpt>
      <trkpt lat="49.43178" lon="1.12253">
        <ele>140.970001</ele>
        <time>2020-12-05T14:39:53Z</time>
      </trkpt>
      <trkpt lat="49.43178" lon="1.12261">
        <ele>140.970001</ele>
        <time>2020-12-05T14:39:54Z</time>
      </trkpt>
      <trkpt lat="49.43178" lon="1.12269">
        <ele>140.970001</ele>
        <time>2020-12-05T14:39:55Z</time>
      </trkpt>
      <trkpt lat="49.43177" lon="1.12277">
        <ele>140.970001</ele>
        <time>2020-12-05T14:39:56Z</time>
      </trkpt>
      <trkpt lat="49.43175" lon="1.12285">
        <ele>140.970001</ele>
        <time>2020-12-05T14:39:57Z</time>
      </trkpt>
      <trkpt lat="49.4317" lon="1.1231">
        <ele>140.970001</ele>
        <time>2020-12-05T14:40:00Z</time>
      </trkpt>
      <trkpt lat="49.43161" lon="1.12341">
        <ele>140.970001</ele>
        <time>2020-12-05T14:40:04Z</time>
      </trkpt>
      <trkpt lat="49.4316" lon="1.12348">
        <ele>140.970001</ele>
        <time>2020-12-05T14:40:05Z</time>
      </trkpt>
      <trkpt lat="49.43158" lon="1.12356">
        <ele>140.970001</ele>
        <time>2020-12-05T14:40:06Z</time>
      </trkpt>
      <trkpt lat="49.43156" lon="1.12364">
        <ele>140.970001</ele>
        <time>2020-12-05T14:40:07Z</time>
      </trkpt>
      <trkpt lat="49.43154" lon="1.12371">
        <ele>140.970001</ele>
        <time>2020-12-05T14:40:08Z</time>
      </trkpt>
      <trkpt lat="49.43149" lon="1.12393">
        <ele>140.970001</ele>
        <time>2020-12-05T14:40:11Z</time>
      </trkpt>
      <trkpt lat="49.43146" lon="1.12409">
        <ele>140.970001</ele>
        <time>2020-12-05T14:40:13Z</time>
      </trkpt>
      <trkpt lat="49.43137" lon="1.12437">
        <ele>140.970001</ele>
        <time>2020-12-05T14:40:17Z</time>
      </trkpt>
      <trkpt lat="49.43135" lon="1.12443">
        <ele>140.970001</ele>
        <time>2020-12-05T14:40:18Z</time>
      </trkpt>
      <trkpt lat="49.43134" lon="1.12448">
        <ele>140.970001</ele>
        <time>2020-12-05T14:40:19Z</time>
      </trkpt>
      <trkpt lat="49.43132" lon="1.12452">
        <ele>140.970001</ele>
        <time>2020-12-05T14:40:20Z</time>
      </trkpt>
      <trkpt lat="49.43131" lon="1.12458">
        <ele>140.970001</ele>
        <time>2020-12-05T14:40:21Z</time>
      </trkpt>
      <trkpt lat="49.43131" lon="1.12463">
        <ele>140.970001</ele>
        <time>2020-12-05T14:40:22Z</time>
      </trkpt>
      <trkpt lat="49.43132" lon="1.12468">
        <ele>140.970001</ele>
        <time>2020-12-05T14:40:23Z</time>
      </trkpt>
      <trkpt lat="49.43134" lon="1.12474">
        <ele>139.529999</ele>
        <time>2020-12-05T14:40:24Z</time>
      </trkpt>
      <trkpt lat="49.43135" lon="1.1248">
        <ele>139.529999</ele>
        <time>2020-12-05T14:40:25Z</time>
      </trkpt>
      <trkpt lat="49.43138" lon="1.12487">
        <ele>139.529999</ele>
        <time>2020-12-05T14:40:26Z</time>
      </trkpt>
      <trkpt lat="49.43144" lon="1.12514">
        <ele>139.050003</ele>
        <time>2020-12-05T14:40:30Z</time>
      </trkpt>
      <trkpt lat="49.43144" lon="1.12552">
        <ele>139.050003</ele>
        <time>2020-12-05T14:40:38Z</time>
      </trkpt>
      <trkpt lat="49.43144" lon="1.12565">
        <ele>139.050003</ele>
        <time>2020-12-05T14:40:54Z</time>
      </trkpt>
      <trkpt lat="49.43146" lon="1.12576">
        <ele>139.050003</ele>
        <time>2020-12-05T14:40:59Z</time>
      </trkpt>
      <trkpt lat="49.43148" lon="1.12586">
        <ele>139.050003</ele>
        <time>2020-12-05T14:41:03Z</time>
      </trkpt>
      <trkpt lat="49.43142" lon="1.1263">
        <ele>138.570007</ele>
        <time>2020-12-05T14:41:12Z</time>
      </trkpt>
      <trkpt lat="49.43144" lon="1.12651">
        <ele>138.089996</ele>
        <time>2020-12-05T14:41:15Z</time>
      </trkpt>
      <trkpt lat="49.43149" lon="1.12669">
        <ele>136.639999</ele>
        <time>2020-12-05T14:41:18Z</time>
      </trkpt>
      <trkpt lat="49.43156" lon="1.12692">
        <ele>135.679993</ele>
        <time>2020-12-05T14:41:21Z</time>
      </trkpt>
      <trkpt lat="49.43161" lon="1.12731">
        <ele>135.679993</ele>
        <time>2020-12-05T14:41:26Z</time>
      </trkpt>
      <trkpt lat="49.43163" lon="1.12765">
        <ele>135.679993</ele>
        <time>2020-12-05T14:41:30Z</time>
      </trkpt>
      <trkpt lat="49.43166" lon="1.12813">
        <ele>137.130005</ele>
        <time>2020-12-05T14:41:36Z</time>
      </trkpt>
      <trkpt lat="49.43145" lon="1.12866">
        <ele>137.610001</ele>
        <time>2020-12-05T14:41:45Z</time>
      </trkpt>
      <trkpt lat="49.43138" lon="1.12877">
        <ele>135.199997</ele>
        <time>2020-12-05T14:41:48Z</time>
      </trkpt>
      <trkpt lat="49.43131" lon="1.1288">
        <ele>134.720001</ele>
        <time>2020-12-05T14:41:50Z</time>
      </trkpt>
      <trkpt lat="49.43121" lon="1.12891">
        <ele>131.839996</ele>
        <time>2020-12-05T14:41:54Z</time>
      </trkpt>
      <trkpt lat="49.43074" lon="1.12891">
        <ele>133.759995</ele>
        <time>2020-12-05T14:42:07Z</time>
      </trkpt>
      <trkpt lat="49.43035" lon="1.12887">
        <ele>135.679993</ele>
        <time>2020-12-05T14:42:18Z</time>
      </trkpt>
      <trkpt lat="49.42987" lon="1.12902">
        <ele>135.679993</ele>
        <time>2020-12-05T14:42:30Z</time>
      </trkpt>
      <trkpt lat="49.4295" lon="1.12908">
        <ele>134.720001</ele>
        <time>2020-12-05T14:42:37Z</time>
      </trkpt>
      <trkpt lat="49.42947" lon="1.12913">
        <ele>134.720001</ele>
        <time>2020-12-05T14:42:38Z</time>
      </trkpt>
      <trkpt lat="49.42944" lon="1.12918">
        <ele>134.720001</ele>
        <time>2020-12-05T14:42:39Z</time>
      </trkpt>
      <trkpt lat="49.42942" lon="1.12924">
        <ele>134.720001</ele>
        <time>2020-12-05T14:42:40Z</time>
      </trkpt>
      <trkpt lat="49.4294" lon="1.1293">
        <ele>134.720001</ele>
        <time>2020-12-05T14:42:41Z</time>
      </trkpt>
      <trkpt lat="49.42934" lon="1.12954">
        <ele>134.720001</ele>
        <time>2020-12-05T14:42:45Z</time>
      </trkpt>
      <trkpt lat="49.42932" lon="1.1296">
        <ele>135.679993</ele>
        <time>2020-12-05T14:42:46Z</time>
      </trkpt>
      <trkpt lat="49.42931" lon="1.12978">
        <ele>135.679993</ele>
        <time>2020-12-05T14:42:49Z</time>
      </trkpt>
      <trkpt lat="49.42932" lon="1.12984">
        <ele>135.679993</ele>
        <time>2020-12-05T14:42:50Z</time>
      </trkpt>
      <trkpt lat="49.42934" lon="1.12989">
        <ele>136.160004</ele>
        <time>2020-12-05T14:42:51Z</time>
      </trkpt>
      <trkpt lat="49.42943" lon="1.12996">
        <ele>136.160004</ele>
        <time>2020-12-05T14:42:54Z</time>
      </trkpt>
      <trkpt lat="49.42944" lon="1.12995">
        <ele>134.240005</ele>
        <time>2020-12-05T14:42:55Z</time>
      </trkpt>
      <trkpt lat="49.42947" lon="1.1299">
        <ele>133.759995</ele>
        <time>2020-12-05T14:42:56Z</time>
      </trkpt>
      <trkpt lat="49.42952" lon="1.12976">
        <ele>130.399994</ele>
        <time>2020-12-05T14:42:59Z</time>
      </trkpt>
      <trkpt lat="49.42957" lon="1.12966">
        <ele>127.029999</ele>
        <time>2020-12-05T14:43:02Z</time>
      </trkpt>
      <trkpt lat="49.42967" lon="1.12966">
        <ele>122.709999</ele>
        <time>2020-12-05T14:43:05Z</time>
      </trkpt>
      <trkpt lat="49.42977" lon="1.12974">
        <ele>118.860001</ele>
        <time>2020-12-05T14:43:08Z</time>
      </trkpt>
      <trkpt lat="49.42985" lon="1.12982">
        <ele>115.5</ele>
        <time>2020-12-05T14:43:11Z</time>
      </trkpt>
      <trkpt lat="49.42987" lon="1.12982">
        <ele>115.010002</ele>
        <time>2020-12-05T14:43:12Z</time>
      </trkpt>
      <trkpt lat="49.4299" lon="1.12982">
        <ele>114.050003</ele>
        <time>2020-12-05T14:43:13Z</time>
      </trkpt>
      <trkpt lat="49.42991" lon="1.12982">
        <ele>114.050003</ele>
        <time>2020-12-05T14:43:14Z</time>
      </trkpt>
      <trkpt lat="49.42991" lon="1.12984">
        <ele>114.050003</ele>
        <time>2020-12-05T14:43:25Z</time>
      </trkpt>
      <trkpt lat="49.42991" lon="1.12986">
        <ele>114.050003</ele>
        <time>2020-12-05T14:43:26Z</time>
      </trkpt>
      <trkpt lat="49.42989" lon="1.12989">
        <ele>113.57</ele>
        <time>2020-12-05T14:43:27Z</time>
      </trkpt>
      <trkpt lat="49.42974" lon="1.13015">
        <ele>115.010002</ele>
        <time>2020-12-05T14:43:34Z</time>
      </trkpt>
      <trkpt lat="49.42969" lon="1.13017">
        <ele>115.5</ele>
        <time>2020-12-05T14:43:36Z</time>
      </trkpt>
      <trkpt lat="49.4296" lon="1.13025">
        <ele>118.379997</ele>
        <time>2020-12-05T14:43:41Z</time>
      </trkpt>
      <trkpt lat="49.42957" lon="1.1303">
        <ele>120.300003</ele>
        <time>2020-12-05T14:43:45Z</time>
      </trkpt>
      <trkpt lat="49.42955" lon="1.13033">
        <ele>121.260002</ele>
        <time>2020-12-05T14:43:47Z</time>
      </trkpt>
      <trkpt lat="49.42957" lon="1.13037">
        <ele>122.220001</ele>
        <time>2020-12-05T14:43:50Z</time>
      </trkpt>
      <trkpt lat="49.42958" lon="1.1304">
        <ele>122.709999</ele>
        <time>2020-12-05T14:43:51Z</time>
      </trkpt>
      <trkpt lat="49.42959" lon="1.13042">
        <ele>123.190002</ele>
        <time>2020-12-05T14:43:52Z</time>
      </trkpt>
      <trkpt lat="49.4296" lon="1.13045">
        <ele>123.190002</ele>
        <time>2020-12-05T14:43:53Z</time>
      </trkpt>
      <trkpt lat="49.42959" lon="1.13048">
        <ele>123.669998</ele>
        <time>2020-12-05T14:43:54Z</time>
      </trkpt>
      <trkpt lat="49.4296" lon="1.13058">
        <ele>124.629997</ele>
        <time>2020-12-05T14:43:59Z</time>
      </trkpt>
      <trkpt lat="49.42959" lon="1.13061">
        <ele>126.07</ele>
        <time>2020-12-05T14:44:01Z</time>
      </trkpt>
      <trkpt lat="49.42959" lon="1.13064">
        <ele>127.029999</ele>
        <time>2020-12-05T14:44:03Z</time>
      </trkpt>
      <trkpt lat="49.42959" lon="1.13067">
        <ele>127.029999</ele>
        <time>2020-12-05T14:44:04Z</time>
      </trkpt>
      <trkpt lat="49.4296" lon="1.13076">
        <ele>127.510002</ele>
        <time>2020-12-05T14:44:08Z</time>
      </trkpt>
      <trkpt lat="49.42961" lon="1.13078">
        <ele>127.510002</ele>
        <time>2020-12-05T14:44:09Z</time>
      </trkpt>
      <trkpt lat="49.42962" lon="1.13082">
        <ele>127.510002</ele>
        <time>2020-12-05T14:44:10Z</time>
      </trkpt>
      <trkpt lat="49.42963" lon="1.13087">
        <ele>126.550003</ele>
        <time>2020-12-05T14:44:11Z</time>
      </trkpt>
      <trkpt lat="49.42965" lon="1.13091">
        <ele>126.07</ele>
        <time>2020-12-05T14:44:12Z</time>
      </trkpt>
      <trkpt lat="49.42967" lon="1.13096">
        <ele>125.589996</ele>
        <time>2020-12-05T14:44:13Z</time>
      </trkpt>
      <trkpt lat="49.42968" lon="1.131">
        <ele>125.589996</ele>
        <time>2020-12-05T14:44:14Z</time>
      </trkpt>
      <trkpt lat="49.42969" lon="1.13104">
        <ele>124.629997</ele>
        <time>2020-12-05T14:44:15Z</time>
      </trkpt>
      <trkpt lat="49.4297" lon="1.13107">
        <ele>124.629997</ele>
        <time>2020-12-05T14:44:16Z</time>
      </trkpt>
      <trkpt lat="49.42971" lon="1.13112">
        <ele>124.150002</ele>
        <time>2020-12-05T14:44:17Z</time>
      </trkpt>
      <trkpt lat="49.42974" lon="1.13136">
        <ele>122.709999</ele>
        <time>2020-12-05T14:44:21Z</time>
      </trkpt>
      <trkpt lat="49.42972" lon="1.13139">
        <ele>122.709999</ele>
        <time>2020-12-05T14:44:22Z</time>
      </trkpt>
      <trkpt lat="49.4297" lon="1.13143">
        <ele>122.709999</ele>
        <time>2020-12-05T14:44:23Z</time>
      </trkpt>
      <trkpt lat="49.42969" lon="1.13146">
        <ele>124.150002</ele>
        <time>2020-12-05T14:44:24Z</time>
      </trkpt>
      <trkpt lat="49.42968" lon="1.13149">
        <ele>125.110001</ele>
        <time>2020-12-05T14:44:25Z</time>
      </trkpt>
      <trkpt lat="49.42968" lon="1.13152">
        <ele>125.589996</ele>
        <time>2020-12-05T14:44:26Z</time>
      </trkpt>
      <trkpt lat="49.42968" lon="1.13155">
        <ele>126.07</ele>
        <time>2020-12-05T14:44:27Z</time>
      </trkpt>
      <trkpt lat="49.42968" lon="1.13158">
        <ele>127.510002</ele>
        <time>2020-12-05T14:44:28Z</time>
      </trkpt>
      <trkpt lat="49.42969" lon="1.13161">
        <ele>127.989998</ele>
        <time>2020-12-05T14:44:29Z</time>
      </trkpt>
      <trkpt lat="49.42969" lon="1.13164">
        <ele>128.470001</ele>
        <time>2020-12-05T14:44:30Z</time>
      </trkpt>
      <trkpt lat="49.42969" lon="1.13166">
        <ele>128.470001</ele>
        <time>2020-12-05T14:44:31Z</time>
      </trkpt>
      <trkpt lat="49.42969" lon="1.13169">
        <ele>128.470001</ele>
        <time>2020-12-05T14:44:32Z</time>
      </trkpt>
      <trkpt lat="49.42969" lon="1.13171">
        <ele>128.470001</ele>
        <time>2020-12-05T14:44:33Z</time>
      </trkpt>
      <trkpt lat="49.42969" lon="1.13173">
        <ele>129.429993</ele>
        <time>2020-12-05T14:44:34Z</time>
      </trkpt>
      <trkpt lat="49.42968" lon="1.13176">
        <ele>129.429993</ele>
        <time>2020-12-05T14:44:35Z</time>
      </trkpt>
      <trkpt lat="49.42968" lon="1.13178">
        <ele>129.429993</ele>
        <time>2020-12-05T14:44:36Z</time>
      </trkpt>
      <trkpt lat="49.42969" lon="1.13181">
        <ele>129.429993</ele>
        <time>2020-12-05T14:44:37Z</time>
      </trkpt>
      <trkpt lat="49.42969" lon="1.13184">
        <ele>129.919998</ele>
        <time>2020-12-05T14:44:38Z</time>
      </trkpt>
      <trkpt lat="49.42969" lon="1.13186">
        <ele>129.919998</ele>
        <time>2020-12-05T14:44:39Z</time>
      </trkpt>
      <trkpt lat="49.42969" lon="1.13188">
        <ele>129.919998</ele>
        <time>2020-12-05T14:44:40Z</time>
      </trkpt>
      <trkpt lat="49.4297" lon="1.13192">
        <ele>129.919998</ele>
        <time>2020-12-05T14:44:41Z</time>
      </trkpt>
      <trkpt lat="49.42971" lon="1.13196">
        <ele>129.919998</ele>
        <time>2020-12-05T14:44:42Z</time>
      </trkpt>
      <trkpt lat="49.42977" lon="1.13222">
        <ele>130.399994</ele>
        <time>2020-12-05T14:44:49Z</time>
      </trkpt>
      <trkpt lat="49.42979" lon="1.13226">
        <ele>130.399994</ele>
        <time>2020-12-05T14:44:50Z</time>
      </trkpt>
      <trkpt lat="49.42982" lon="1.1323">
        <ele>128.470001</ele>
        <time>2020-12-05T14:44:51Z</time>
      </trkpt>
      <trkpt lat="49.42984" lon="1.13236">
        <ele>127.510002</ele>
        <time>2020-12-05T14:44:52Z</time>
      </trkpt>
      <trkpt lat="49.42985" lon="1.13242">
        <ele>127.510002</ele>
        <time>2020-12-05T14:44:53Z</time>
      </trkpt>
      <trkpt lat="49.42986" lon="1.13247">
        <ele>127.510002</ele>
        <time>2020-12-05T14:44:54Z</time>
      </trkpt>
      <trkpt lat="49.42986" lon="1.13252">
        <ele>127.510002</ele>
        <time>2020-12-05T14:44:55Z</time>
      </trkpt>
      <trkpt lat="49.42989" lon="1.13268">
        <ele>127.510002</ele>
        <time>2020-12-05T14:44:58Z</time>
      </trkpt>
      <trkpt lat="49.42988" lon="1.13274">
        <ele>127.510002</ele>
        <time>2020-12-05T14:44:59Z</time>
      </trkpt>
      <trkpt lat="49.42987" lon="1.13279">
        <ele>127.510002</ele>
        <time>2020-12-05T14:45:00Z</time>
      </trkpt>
      <trkpt lat="49.42986" lon="1.13285">
        <ele>128.949997</ele>
        <time>2020-12-05T14:45:01Z</time>
      </trkpt>
      <trkpt lat="49.42986" lon="1.13289">
        <ele>129.919998</ele>
        <time>2020-12-05T14:45:02Z</time>
      </trkpt>
      <trkpt lat="49.42985" lon="1.13296">
        <ele>130.880005</ele>
        <time>2020-12-05T14:45:04Z</time>
      </trkpt>
      <trkpt lat="49.42986" lon="1.133">
        <ele>131.360001</ele>
        <time>2020-12-05T14:45:05Z</time>
      </trkpt>
      <trkpt lat="49.42987" lon="1.13303">
        <ele>131.360001</ele>
        <time>2020-12-05T14:45:06Z</time>
      </trkpt>
      <trkpt lat="49.42988" lon="1.13306">
        <ele>132.320007</ele>
        <time>2020-12-05T14:45:07Z</time>
      </trkpt>
      <trkpt lat="49.4299" lon="1.13308">
        <ele>132.320007</ele>
        <time>2020-12-05T14:45:08Z</time>
      </trkpt>
      <trkpt lat="49.42993" lon="1.13311">
        <ele>132.320007</ele>
        <time>2020-12-05T14:45:09Z</time>
      </trkpt>
      <trkpt lat="49.42996" lon="1.13315">
        <ele>132.320007</ele>
        <time>2020-12-05T14:45:10Z</time>
      </trkpt>
      <trkpt lat="49.42998" lon="1.13319">
        <ele>132.320007</ele>
        <time>2020-12-05T14:45:11Z</time>
      </trkpt>
      <trkpt lat="49.43" lon="1.13323">
        <ele>132.320007</ele>
        <time>2020-12-05T14:45:12Z</time>
      </trkpt>
      <trkpt lat="49.43017" lon="1.13362">
        <ele>131.839996</ele>
        <time>2020-12-05T14:45:21Z</time>
      </trkpt>
      <trkpt lat="49.43024" lon="1.13372">
        <ele>130.880005</ele>
        <time>2020-12-05T14:45:23Z</time>
      </trkpt>
      <trkpt lat="49.43028" lon="1.13377">
        <ele>129.919998</ele>
        <time>2020-12-05T14:45:24Z</time>
      </trkpt>
      <trkpt lat="49.43032" lon="1.13384">
        <ele>128.949997</ele>
        <time>2020-12-05T14:45:25Z</time>
      </trkpt>
      <trkpt lat="49.43035" lon="1.1339">
        <ele>128.949997</ele>
        <time>2020-12-05T14:45:26Z</time>
      </trkpt>
      <trkpt lat="49.43041" lon="1.13404">
        <ele>128.949997</ele>
        <time>2020-12-05T14:45:28Z</time>
      </trkpt>
      <trkpt lat="49.43052" lon="1.13425">
        <ele>130.399994</ele>
        <time>2020-12-05T14:45:32Z</time>
      </trkpt>
      <trkpt lat="49.43055" lon="1.13428">
        <ele>130.399994</ele>
        <time>2020-12-05T14:45:33Z</time>
      </trkpt>
      <trkpt lat="49.43065" lon="1.13437">
        <ele>128.949997</ele>
        <time>2020-12-05T14:45:36Z</time>
      </trkpt>
      <trkpt lat="49.43071" lon="1.13447">
        <ele>128.470001</ele>
        <time>2020-12-05T14:45:38Z</time>
      </trkpt>
      <trkpt lat="49.43073" lon="1.13452">
        <ele>128.470001</ele>
        <time>2020-12-05T14:45:39Z</time>
      </trkpt>
      <trkpt lat="49.43076" lon="1.13458">
        <ele>127.989998</ele>
        <time>2020-12-05T14:45:40Z</time>
      </trkpt>
      <trkpt lat="49.43089" lon="1.13481">
        <ele>127.510002</ele>
        <time>2020-12-05T14:45:44Z</time>
      </trkpt>
      <trkpt lat="49.43091" lon="1.13488">
        <ele>127.510002</ele>
        <time>2020-12-05T14:45:45Z</time>
      </trkpt>
      <trkpt lat="49.43093" lon="1.13495">
        <ele>127.510002</ele>
        <time>2020-12-05T14:45:46Z</time>
      </trkpt>
      <trkpt lat="49.43095" lon="1.13501">
        <ele>127.510002</ele>
        <time>2020-12-05T14:45:47Z</time>
      </trkpt>
      <trkpt lat="49.43096" lon="1.13507">
        <ele>127.510002</ele>
        <time>2020-12-05T14:45:48Z</time>
      </trkpt>
      <trkpt lat="49.43097" lon="1.13512">
        <ele>127.510002</ele>
        <time>2020-12-05T14:45:49Z</time>
      </trkpt>
      <trkpt lat="49.43107" lon="1.13546">
        <ele>128.949997</ele>
        <time>2020-12-05T14:45:55Z</time>
      </trkpt>
      <trkpt lat="49.43113" lon="1.13558">
        <ele>128.949997</ele>
        <time>2020-12-05T14:45:57Z</time>
      </trkpt>
      <trkpt lat="49.43115" lon="1.13563">
        <ele>128.949997</ele>
        <time>2020-12-05T14:45:58Z</time>
      </trkpt>
      <trkpt lat="49.43118" lon="1.1357">
        <ele>127.029999</ele>
        <time>2020-12-05T14:46:01Z</time>
      </trkpt>
      <trkpt lat="49.43117" lon="1.13578">
        <ele>125.589996</ele>
        <time>2020-12-05T14:46:12Z</time>
      </trkpt>
      <trkpt lat="49.43117" lon="1.13584">
        <ele>125.589996</ele>
        <time>2020-12-05T14:46:22Z</time>
      </trkpt>
      <trkpt lat="49.43116" lon="1.13586">
        <ele>125.589996</ele>
        <time>2020-12-05T14:46:23Z</time>
      </trkpt>
      <trkpt lat="49.43111" lon="1.136">
        <ele>128.949997</ele>
        <time>2020-12-05T14:46:27Z</time>
      </trkpt>
      <trkpt lat="49.43105" lon="1.13652">
        <ele>131.839996</ele>
        <time>2020-12-05T14:46:39Z</time>
      </trkpt>
      <trkpt lat="49.43093" lon="1.13682">
        <ele>133.759995</ele>
        <time>2020-12-05T14:46:49Z</time>
      </trkpt>
      <trkpt lat="49.43091" lon="1.13687">
        <ele>134.240005</ele>
        <time>2020-12-05T14:46:51Z</time>
      </trkpt>
      <trkpt lat="49.43078" lon="1.13692">
        <ele>136.639999</ele>
        <time>2020-12-05T14:46:59Z</time>
      </trkpt>
      <trkpt lat="49.43046" lon="1.13699">
        <ele>137.130005</ele>
        <time>2020-12-05T14:47:10Z</time>
      </trkpt>
      <trkpt lat="49.4302" lon="1.13691">
        <ele>137.610001</ele>
        <time>2020-12-05T14:47:18Z</time>
      </trkpt>
      <trkpt lat="49.4299" lon="1.13712">
        <ele>138.570007</ele>
        <time>2020-12-05T14:47:27Z</time>
      </trkpt>
      <trkpt lat="49.42952" lon="1.13761">
        <ele>140.009995</ele>
        <time>2020-12-05T14:47:38Z</time>
      </trkpt>
      <trkpt lat="49.42962" lon="1.13779">
        <ele>138.570007</ele>
        <time>2020-12-05T14:47:45Z</time>
      </trkpt>
      <trkpt lat="49.42994" lon="1.13771">
        <ele>138.570007</ele>
        <time>2020-12-05T14:47:55Z</time>
      </trkpt>
      <trkpt lat="49.43025" lon="1.13751">
        <ele>137.610001</ele>
        <time>2020-12-05T14:48:04Z</time>
      </trkpt>
      <trkpt lat="49.4305" lon="1.13765">
        <ele>136.639999</ele>
        <time>2020-12-05T14:48:12Z</time>
      </trkpt>
      <trkpt lat="49.43042" lon="1.1379">
        <ele>136.639999</ele>
        <time>2020-12-05T14:48:18Z</time>
      </trkpt>
      <trkpt lat="49.4303" lon="1.13807">
        <ele>136.639999</ele>
        <time>2020-12-05T14:48:24Z</time>
      </trkpt>
      <trkpt lat="49.43054" lon="1.13839">
        <ele>135.679993</ele>
        <time>2020-12-05T14:48:34Z</time>
      </trkpt>
      <trkpt lat="49.4306" lon="1.13854">
        <ele>135.199997</ele>
        <time>2020-12-05T14:48:37Z</time>
      </trkpt>
      <trkpt lat="49.43059" lon="1.13858">
        <ele>135.199997</ele>
        <time>2020-12-05T14:48:38Z</time>
      </trkpt>
      <trkpt lat="49.43058" lon="1.13861">
        <ele>135.199997</ele>
        <time>2020-12-05T14:48:39Z</time>
      </trkpt>
      <trkpt lat="49.43045" lon="1.13876">
        <ele>135.199997</ele>
        <time>2020-12-05T14:48:45Z</time>
      </trkpt>
      <trkpt lat="49.43036" lon="1.13877">
        <ele>136.639999</ele>
        <time>2020-12-05T14:48:49Z</time>
      </trkpt>
      <trkpt lat="49.43034" lon="1.13879">
        <ele>136.639999</ele>
        <time>2020-12-05T14:48:50Z</time>
      </trkpt>
      <trkpt lat="49.4301" lon="1.13902">
        <ele>137.130005</ele>
        <time>2020-12-05T14:49:01Z</time>
      </trkpt>
      <trkpt lat="49.42998" lon="1.13895">
        <ele>138.089996</ele>
        <time>2020-12-05T14:49:15Z</time>
      </trkpt>
      <trkpt lat="49.42993" lon="1.13893">
        <ele>138.570007</ele>
        <time>2020-12-05T14:49:20Z</time>
      </trkpt>
      <trkpt lat="49.4296" lon="1.13904">
        <ele>139.050003</ele>
        <time>2020-12-05T14:49:33Z</time>
      </trkpt>
      <trkpt lat="49.42918" lon="1.13918">
        <ele>140.490005</ele>
        <time>2020-12-05T14:49:44Z</time>
      </trkpt>
      <trkpt lat="49.42913" lon="1.13922">
        <ele>140.490005</ele>
        <time>2020-12-05T14:49:46Z</time>
      </trkpt>
      <trkpt lat="49.42889" lon="1.13954">
        <ele>138.089996</ele>
        <time>2020-12-05T14:49:53Z</time>
      </trkpt>
      <trkpt lat="49.42876" lon="1.13979">
        <ele>137.610001</ele>
        <time>2020-12-05T14:49:57Z</time>
      </trkpt>
    </trkseg>
  </trk>
</gpx>